<?xml version='1.0' encoding='UTF-8'?>
<gpx version="1.1" creator="https://www.komoot.de" xmlns="http://www.topografix.com/GPX/1/1" xmlns:xsi="http://www.w3.org/2001/XMLSchema-instance" xsi:schemaLocation="http://www.topografix.com/GPX/1/1 http://www.topografix.com/GPX/1/1/gpx.xsd">
  <metadata>
    <name>Lemgo radelt-2-13 05 2025-Wahmbeckerheide>Mosebeck>Öttern Bremke>Heiden</name>
    <author>
      <link href="https://www.komoot.de">
        <text>komoot</text>
        <type>text/html</type>
      </link>
    </author>
  </metadata>
  <trk>
    <name>Lemgo radelt-2-13 05 2025-Wahmbeckerheide>Mosebeck>Öttern Bremke>Heiden</name>
    <trkseg>
      <trkpt lat="52.024446" lon="8.907343">
        <ele>97.455136</ele>
        <time>2025-05-10T17:39:52.334Z</time>
      </trkpt>
      <trkpt lat="52.024501" lon="8.907135">
        <ele>97.455136</ele>
        <time>2025-05-10T17:39:55.899Z</time>
      </trkpt>
      <trkpt lat="52.024630" lon="8.907230">
        <ele>97.455136</ele>
        <time>2025-05-10T17:39:59.583Z</time>
      </trkpt>
      <trkpt lat="52.024761" lon="8.907326">
        <ele>97.455136</ele>
        <time>2025-05-10T17:40:03.388Z</time>
      </trkpt>
      <trkpt lat="52.024891" lon="8.907415">
        <ele>97.455136</ele>
        <time>2025-05-10T17:40:07.201Z</time>
      </trkpt>
      <trkpt lat="52.025044" lon="8.907447">
        <ele>97.455136</ele>
        <time>2025-05-10T17:40:11.455Z</time>
      </trkpt>
      <trkpt lat="52.025134" lon="8.907465">
        <ele>97.455136</ele>
        <time>2025-05-10T17:40:13.985Z</time>
      </trkpt>
      <trkpt lat="52.025148" lon="8.907466">
        <ele>97.455136</ele>
        <time>2025-05-10T17:40:14.498Z</time>
      </trkpt>
      <trkpt lat="52.025203" lon="8.907453">
        <ele>97.455136</ele>
        <time>2025-05-10T17:40:16.536Z</time>
      </trkpt>
      <trkpt lat="52.025188" lon="8.907045">
        <ele>97.551301</ele>
        <time>2025-05-10T17:40:23.936Z</time>
      </trkpt>
      <trkpt lat="52.025135" lon="8.907017">
        <ele>97.574361</ele>
        <time>2025-05-10T17:40:25.936Z</time>
      </trkpt>
      <trkpt lat="52.024396" lon="8.906385">
        <ele>97.919900</ele>
        <time>2025-05-10T17:40:50.232Z</time>
      </trkpt>
      <trkpt lat="52.024340" lon="8.906308">
        <ele>97.950253</ele>
        <time>2025-05-10T17:40:52.334Z</time>
      </trkpt>
      <trkpt lat="52.024136" lon="8.906030">
        <ele>98.060414</ele>
        <time>2025-05-10T17:41:00.218Z</time>
      </trkpt>
      <trkpt lat="52.023984" lon="8.905573">
        <ele>98.192683</ele>
        <time>2025-05-10T17:41:09.490Z</time>
      </trkpt>
      <trkpt lat="52.023846" lon="8.904631">
        <ele>98.396867</ele>
        <time>2025-05-10T17:41:25.936Z</time>
      </trkpt>
      <trkpt lat="52.023851" lon="8.904259">
        <ele>98.474872</ele>
        <time>2025-05-10T17:41:32.218Z</time>
      </trkpt>
      <trkpt lat="52.023872" lon="8.904100">
        <ele>98.508964</ele>
        <time>2025-05-10T17:41:34.980Z</time>
      </trkpt>
      <trkpt lat="52.023892" lon="8.904000">
        <ele>98.531007</ele>
        <time>2025-05-10T17:41:36.773Z</time>
      </trkpt>
      <trkpt lat="52.023946" lon="8.903493">
        <ele>98.638876</ele>
        <time>2025-05-10T17:41:45.818Z</time>
      </trkpt>
      <trkpt lat="52.023933" lon="8.902803">
        <ele>98.783595</ele>
        <time>2025-05-10T17:41:58.252Z</time>
      </trkpt>
      <trkpt lat="52.023918" lon="8.901989">
        <ele>98.935316</ele>
        <time>2025-05-10T17:42:12.779Z</time>
      </trkpt>
      <trkpt lat="52.023986" lon="8.901106">
        <ele>99.096933</ele>
        <time>2025-05-10T17:42:28.022Z</time>
      </trkpt>
      <trkpt lat="52.024077" lon="8.899614">
        <ele>99.613233</ele>
        <time>2025-05-10T17:42:52.607Z</time>
      </trkpt>
      <trkpt lat="52.024100" lon="8.899368">
        <ele>100.079427</ele>
        <time>2025-05-10T17:42:56.887Z</time>
      </trkpt>
      <trkpt lat="52.024068" lon="8.899374">
        <ele>100.177508</ele>
        <time>2025-05-10T17:42:57.915Z</time>
      </trkpt>
      <trkpt lat="52.023849" lon="8.899407">
        <ele>100.847192</ele>
        <time>2025-05-10T17:43:05.165Z</time>
      </trkpt>
      <trkpt lat="52.023683" lon="8.899522">
        <ele>101.396647</ele>
        <time>2025-05-10T17:43:11.474Z</time>
      </trkpt>
      <trkpt lat="52.023567" lon="8.899562">
        <ele>101.757714</ele>
        <time>2025-05-10T17:43:17.094Z</time>
      </trkpt>
      <trkpt lat="52.023550" lon="8.899572">
        <ele>101.812763</ele>
        <time>2025-05-10T17:43:17.950Z</time>
      </trkpt>
      <trkpt lat="52.023131" lon="8.899826">
        <ele>103.174428</ele>
        <time>2025-05-10T17:43:40.924Z</time>
      </trkpt>
      <trkpt lat="52.023110" lon="8.899839">
        <ele>103.242853</ele>
        <time>2025-05-10T17:43:42.085Z</time>
      </trkpt>
      <trkpt lat="52.022901" lon="8.899961">
        <ele>103.919036</ele>
        <time>2025-05-10T17:43:55.289Z</time>
      </trkpt>
      <trkpt lat="52.022828" lon="8.899981">
        <ele>104.144447</ele>
        <time>2025-05-10T17:43:59.987Z</time>
      </trkpt>
      <trkpt lat="52.022797" lon="8.899796">
        <ele>104.503693</ele>
        <time>2025-05-10T17:44:07.248Z</time>
      </trkpt>
      <trkpt lat="52.022792" lon="8.899707">
        <ele>104.671141</ele>
        <time>2025-05-10T17:44:10.175Z</time>
      </trkpt>
      <trkpt lat="52.022756" lon="8.899700">
        <ele>104.781538</ele>
        <time>2025-05-10T17:44:12.192Z</time>
      </trkpt>
      <trkpt lat="52.022670" lon="8.899678">
        <ele>105.193848</ele>
        <time>2025-05-10T17:44:17.188Z</time>
      </trkpt>
      <trkpt lat="52.022332" lon="8.899593">
        <ele>106.910781</ele>
        <time>2025-05-10T17:44:36.915Z</time>
      </trkpt>
      <trkpt lat="52.021981" lon="8.899493">
        <ele>108.699650</ele>
        <time>2025-05-10T17:44:57.789Z</time>
      </trkpt>
      <trkpt lat="52.021367" lon="8.899321">
        <ele>111.827349</ele>
        <time>2025-05-10T17:45:30.424Z</time>
      </trkpt>
      <trkpt lat="52.021224" lon="8.899213">
        <ele>112.618939</ele>
        <time>2025-05-10T17:45:37.843Z</time>
      </trkpt>
      <trkpt lat="52.021041" lon="8.899049">
        <ele>113.668021</ele>
        <time>2025-05-10T17:45:46.930Z</time>
      </trkpt>
      <trkpt lat="52.020953" lon="8.898970">
        <ele>113.899734</ele>
        <time>2025-05-10T17:45:51.067Z</time>
      </trkpt>
      <trkpt lat="52.020901" lon="8.898928">
        <ele>113.945637</ele>
        <time>2025-05-10T17:45:53.320Z</time>
      </trkpt>
      <trkpt lat="52.020279" lon="8.898426">
        <ele>114.494622</ele>
        <time>2025-05-10T17:46:16.509Z</time>
      </trkpt>
      <trkpt lat="52.019783" lon="8.898084">
        <ele>114.920540</ele>
        <time>2025-05-10T17:46:30.706Z</time>
      </trkpt>
      <trkpt lat="52.019676" lon="8.898034">
        <ele>115.008550</ele>
        <time>2025-05-10T17:46:33.433Z</time>
      </trkpt>
      <trkpt lat="52.019296" lon="8.897967">
        <ele>115.228211</ele>
        <time>2025-05-10T17:46:42.520Z</time>
      </trkpt>
      <trkpt lat="52.019129" lon="8.897880">
        <ele>115.082222</ele>
        <time>2025-05-10T17:46:46.613Z</time>
      </trkpt>
      <trkpt lat="52.018499" lon="8.897354">
        <ele>114.492601</ele>
        <time>2025-05-10T17:47:02.902Z</time>
      </trkpt>
      <trkpt lat="52.018432" lon="8.897310">
        <ele>114.432444</ele>
        <time>2025-05-10T17:47:04.528Z</time>
      </trkpt>
      <trkpt lat="52.018370" lon="8.897258">
        <ele>114.374363</ele>
        <time>2025-05-10T17:47:06.130Z</time>
      </trkpt>
      <trkpt lat="52.018011" lon="8.896748">
        <ele>113.977406</ele>
        <time>2025-05-10T17:47:17.228Z</time>
      </trkpt>
      <trkpt lat="52.017698" lon="8.896259">
        <ele>113.782953</ele>
        <time>2025-05-10T17:47:27.922Z</time>
      </trkpt>
      <trkpt lat="52.017625" lon="8.896164">
        <ele>113.787761</ele>
        <time>2025-05-10T17:47:30.355Z</time>
      </trkpt>
      <trkpt lat="52.017411" lon="8.895903">
        <ele>113.801516</ele>
        <time>2025-05-10T17:47:37.479Z</time>
      </trkpt>
      <trkpt lat="52.017073" lon="8.895568">
        <ele>113.821869</ele>
        <time>2025-05-10T17:47:48.114Z</time>
      </trkpt>
      <trkpt lat="52.016916" lon="8.895413">
        <ele>113.831313</ele>
        <time>2025-05-10T17:47:53.222Z</time>
      </trkpt>
      <trkpt lat="52.016800" lon="8.895210">
        <ele>113.840077</ele>
        <time>2025-05-10T17:47:58.045Z</time>
      </trkpt>
      <trkpt lat="52.016712" lon="8.894966">
        <ele>113.849025</ele>
        <time>2025-05-10T17:48:03.115Z</time>
      </trkpt>
      <trkpt lat="52.016678" lon="8.894870">
        <ele>113.852529</ele>
        <time>2025-05-10T17:48:05.079Z</time>
      </trkpt>
      <trkpt lat="52.016404" lon="8.894007">
        <ele>114.057008</ele>
        <time>2025-05-10T17:48:22.051Z</time>
      </trkpt>
      <trkpt lat="52.016199" lon="8.893466">
        <ele>114.276135</ele>
        <time>2025-05-10T17:48:32.816Z</time>
      </trkpt>
      <trkpt lat="52.015963" lon="8.892897">
        <ele>114.512795</ele>
        <time>2025-05-10T17:48:44.923Z</time>
      </trkpt>
      <trkpt lat="52.015762" lon="8.892411">
        <ele>114.714755</ele>
        <time>2025-05-10T17:48:55.933Z</time>
      </trkpt>
      <trkpt lat="52.015220" lon="8.891113">
        <ele>115.862997</ele>
        <time>2025-05-10T17:49:26.724Z</time>
      </trkpt>
      <trkpt lat="52.014898" lon="8.890313">
        <ele>116.716712</ele>
        <time>2025-05-10T17:49:47.255Z</time>
      </trkpt>
      <trkpt lat="52.014882" lon="8.890169">
        <ele>116.847400</ele>
        <time>2025-05-10T17:49:50.452Z</time>
      </trkpt>
      <trkpt lat="52.014929" lon="8.889950">
        <ele>117.054541</ele>
        <time>2025-05-10T17:49:55.532Z</time>
      </trkpt>
      <trkpt lat="52.014368" lon="8.889550">
        <ele>117.968733</ele>
        <time>2025-05-10T17:50:16.707Z</time>
      </trkpt>
      <trkpt lat="52.013952" lon="8.889250">
        <ele>118.665349</ele>
        <time>2025-05-10T17:50:32.582Z</time>
      </trkpt>
      <trkpt lat="52.013664" lon="8.889043">
        <ele>119.147358</ele>
        <time>2025-05-10T17:50:44.015Z</time>
      </trkpt>
      <trkpt lat="52.012279" lon="8.888038">
        <ele>121.143904</ele>
        <time>2025-05-10T17:51:33.076Z</time>
      </trkpt>
      <trkpt lat="52.011734" lon="8.887663">
        <ele>121.810793</ele>
        <time>2025-05-10T17:51:51.277Z</time>
      </trkpt>
      <trkpt lat="52.011435" lon="8.887446">
        <ele>122.179782</ele>
        <time>2025-05-10T17:52:01.635Z</time>
      </trkpt>
      <trkpt lat="52.010708" lon="8.886917">
        <ele>123.426314</ele>
        <time>2025-05-10T17:52:28.867Z</time>
      </trkpt>
      <trkpt lat="52.010312" lon="8.886635">
        <ele>124.122363</ele>
        <time>2025-05-10T17:52:44.383Z</time>
      </trkpt>
      <trkpt lat="52.010010" lon="8.886411">
        <ele>124.656807</ele>
        <time>2025-05-10T17:52:56.224Z</time>
      </trkpt>
      <trkpt lat="52.009774" lon="8.886245">
        <ele>125.070809</ele>
        <time>2025-05-10T17:53:05.324Z</time>
      </trkpt>
      <trkpt lat="52.009763" lon="8.886160">
        <ele>125.156877</ele>
        <time>2025-05-10T17:53:07.177Z</time>
      </trkpt>
      <trkpt lat="52.009597" lon="8.885983">
        <ele>125.380380</ele>
        <time>2025-05-10T17:53:14.066Z</time>
      </trkpt>
      <trkpt lat="52.008486" lon="8.885194">
        <ele>126.741422</ele>
        <time>2025-05-10T17:53:52.698Z</time>
      </trkpt>
      <trkpt lat="52.007535" lon="8.884509">
        <ele>127.707519</ele>
        <time>2025-05-10T17:54:24.012Z</time>
      </trkpt>
      <trkpt lat="52.006531" lon="8.883775">
        <ele>128.602615</ele>
        <time>2025-05-10T17:54:57.751Z</time>
      </trkpt>
      <trkpt lat="52.006169" lon="8.883535">
        <ele>129.018655</ele>
        <time>2025-05-10T17:55:09.850Z</time>
      </trkpt>
      <trkpt lat="52.005948" lon="8.883388">
        <ele>129.280804</ele>
        <time>2025-05-10T17:55:17.231Z</time>
      </trkpt>
      <trkpt lat="52.004997" lon="8.882718">
        <ele>130.418703</ele>
        <time>2025-05-10T17:55:50.299Z</time>
      </trkpt>
      <trkpt lat="52.004817" lon="8.882645">
        <ele>130.627976</ele>
        <time>2025-05-10T17:55:56.241Z</time>
      </trkpt>
      <trkpt lat="52.003678" lon="8.881815">
        <ele>132.993833</ele>
        <time>2025-05-10T17:56:39.903Z</time>
      </trkpt>
      <trkpt lat="52.003177" lon="8.881314">
        <ele>134.130567</ele>
        <time>2025-05-10T17:57:02.859Z</time>
      </trkpt>
      <trkpt lat="52.002851" lon="8.880812">
        <ele>135.198659</ele>
        <time>2025-05-10T17:57:20.528Z</time>
      </trkpt>
      <trkpt lat="52.002671" lon="8.880405">
        <ele>135.932226</ele>
        <time>2025-05-10T17:57:32.127Z</time>
      </trkpt>
      <trkpt lat="52.002616" lon="8.880256">
        <ele>136.186535</ele>
        <time>2025-05-10T17:57:36.128Z</time>
      </trkpt>
      <trkpt lat="52.002576" lon="8.880143">
        <ele>136.377340</ele>
        <time>2025-05-10T17:57:39.135Z</time>
      </trkpt>
      <trkpt lat="52.002496" lon="8.880044">
        <ele>136.616473</ele>
        <time>2025-05-10T17:57:42.968Z</time>
      </trkpt>
      <trkpt lat="52.002399" lon="8.879835">
        <ele>136.999609</ele>
        <time>2025-05-10T17:57:49.056Z</time>
      </trkpt>
      <trkpt lat="52.002314" lon="8.879618">
        <ele>137.376104</ele>
        <time>2025-05-10T17:57:55.045Z</time>
      </trkpt>
      <trkpt lat="52.002119" lon="8.879260">
        <ele>138.075824</ele>
        <time>2025-05-10T17:58:06.032Z</time>
      </trkpt>
      <trkpt lat="52.002081" lon="8.879296">
        <ele>138.180424</ele>
        <time>2025-05-10T17:58:07.653Z</time>
      </trkpt>
      <trkpt lat="52.001995" lon="8.879410">
        <ele>138.466010</ele>
        <time>2025-05-10T17:58:11.808Z</time>
      </trkpt>
      <trkpt lat="52.001944" lon="8.879593">
        <ele>138.804192</ele>
        <time>2025-05-10T17:58:16.368Z</time>
      </trkpt>
      <trkpt lat="52.001563" lon="8.881096">
        <ele>141.540656</ele>
        <time>2025-05-10T17:58:54.867Z</time>
      </trkpt>
      <trkpt lat="52.001486" lon="8.881356">
        <ele>142.026391</ele>
        <time>2025-05-10T17:59:02.357Z</time>
      </trkpt>
      <trkpt lat="52.001400" lon="8.881540">
        <ele>142.415323</ele>
        <time>2025-05-10T17:59:08.377Z</time>
      </trkpt>
      <trkpt lat="52.001332" lon="8.881605">
        <ele>142.631087</ele>
        <time>2025-05-10T17:59:11.765Z</time>
      </trkpt>
      <trkpt lat="52.000238" lon="8.882084">
        <ele>146.348585</ele>
        <time>2025-05-10T18:00:00.928Z</time>
      </trkpt>
      <trkpt lat="51.999377" lon="8.882461">
        <ele>149.367123</ele>
        <time>2025-05-10T18:00:40.018Z</time>
      </trkpt>
      <trkpt lat="51.998997" lon="8.882511">
        <ele>149.946972</ele>
        <time>2025-05-10T18:00:55.705Z</time>
      </trkpt>
      <trkpt lat="51.998335" lon="8.882430">
        <ele>150.956687</ele>
        <time>2025-05-10T18:01:20.236Z</time>
      </trkpt>
      <trkpt lat="51.998296" lon="8.882507">
        <ele>151.050054</ele>
        <time>2025-05-10T18:01:22.206Z</time>
      </trkpt>
      <trkpt lat="51.998129" lon="8.882500">
        <ele>151.304135</ele>
        <time>2025-05-10T18:01:27.339Z</time>
      </trkpt>
      <trkpt lat="51.998086" lon="8.882551">
        <ele>151.385117</ele>
        <time>2025-05-10T18:01:28.902Z</time>
      </trkpt>
      <trkpt lat="51.998084" lon="8.882605">
        <ele>151.435775</ele>
        <time>2025-05-10T18:01:29.828Z</time>
      </trkpt>
      <trkpt lat="51.998071" lon="8.883126">
        <ele>151.924052</ele>
        <time>2025-05-10T18:01:38.225Z</time>
      </trkpt>
      <trkpt lat="51.998112" lon="8.883259">
        <ele>152.063336</ele>
        <time>2025-05-10T18:01:40.427Z</time>
      </trkpt>
      <trkpt lat="51.998164" lon="8.883264">
        <ele>152.093738</ele>
        <time>2025-05-10T18:01:41.634Z</time>
      </trkpt>
      <trkpt lat="51.998332" lon="8.883193">
        <ele>152.131329</ele>
        <time>2025-05-10T18:01:45.770Z</time>
      </trkpt>
      <trkpt lat="51.998883" lon="8.883154">
        <ele>152.250761</ele>
        <time>2025-05-10T18:01:58.979Z</time>
      </trkpt>
      <trkpt lat="51.998911" lon="8.883232">
        <ele>152.262798</ele>
        <time>2025-05-10T18:02:00.335Z</time>
      </trkpt>
      <trkpt lat="51.998959" lon="8.883629">
        <ele>152.316739</ele>
        <time>2025-05-10T18:02:06.635Z</time>
      </trkpt>
      <trkpt lat="51.998990" lon="8.883672">
        <ele>152.325567</ele>
        <time>2025-05-10T18:02:07.644Z</time>
      </trkpt>
      <trkpt lat="51.998641" lon="8.884997">
        <ele>152.987093</ele>
        <time>2025-05-10T18:02:35.234Z</time>
      </trkpt>
      <trkpt lat="51.998482" lon="8.885769">
        <ele>154.291966</ele>
        <time>2025-05-10T18:02:54.852Z</time>
      </trkpt>
      <trkpt lat="51.998015" lon="8.888029">
        <ele>158.390357</ele>
        <time>2025-05-10T18:03:56.068Z</time>
      </trkpt>
      <trkpt lat="51.997973" lon="8.888169">
        <ele>158.712415</ele>
        <time>2025-05-10T18:04:00.190Z</time>
      </trkpt>
      <trkpt lat="51.997874" lon="8.888308">
        <ele>159.151960</ele>
        <time>2025-05-10T18:04:05.855Z</time>
      </trkpt>
      <trkpt lat="51.997493" lon="8.888709">
        <ele>160.676866</ele>
        <time>2025-05-10T18:04:25.629Z</time>
      </trkpt>
      <trkpt lat="51.996241" lon="8.890723">
        <ele>166.353559</ele>
        <time>2025-05-10T18:05:41.791Z</time>
      </trkpt>
      <trkpt lat="51.996003" lon="8.891135">
        <ele>167.438636</ele>
        <time>2025-05-10T18:05:55.853Z</time>
      </trkpt>
      <trkpt lat="51.995957" lon="8.891258">
        <ele>167.715046</ele>
        <time>2025-05-10T18:05:59.322Z</time>
      </trkpt>
      <trkpt lat="51.995945" lon="8.891301">
        <ele>167.805723</ele>
        <time>2025-05-10T18:06:00.469Z</time>
      </trkpt>
      <trkpt lat="51.995786" lon="8.891862">
        <ele>168.997518</ele>
        <time>2025-05-10T18:06:15.179Z</time>
      </trkpt>
      <trkpt lat="51.995284" lon="8.893587">
        <ele>172.775143</ele>
        <time>2025-05-10T18:07:01.907Z</time>
      </trkpt>
      <trkpt lat="51.995272" lon="8.893630">
        <ele>172.868617</ele>
        <time>2025-05-10T18:07:03.196Z</time>
      </trkpt>
      <trkpt lat="51.995020" lon="8.894431">
        <ele>174.667382</ele>
        <time>2025-05-10T18:07:28.227Z</time>
      </trkpt>
      <trkpt lat="51.994982" lon="8.894548">
        <ele>175.012802</ele>
        <time>2025-05-10T18:07:32.137Z</time>
      </trkpt>
      <trkpt lat="51.994244" lon="8.896730">
        <ele>181.513721</ele>
        <time>2025-05-10T18:08:49.049Z</time>
      </trkpt>
      <trkpt lat="51.993823" lon="8.897890">
        <ele>182.551240</ele>
        <time>2025-05-10T18:09:20.731Z</time>
      </trkpt>
      <trkpt lat="51.993952" lon="8.898058">
        <ele>182.633524</ele>
        <time>2025-05-10T18:09:25.754Z</time>
      </trkpt>
      <trkpt lat="51.994380" lon="8.898314">
        <ele>182.860492</ele>
        <time>2025-05-10T18:09:37.784Z</time>
      </trkpt>
      <trkpt lat="51.994500" lon="8.898486">
        <ele>182.940137</ele>
        <time>2025-05-10T18:09:41.433Z</time>
      </trkpt>
      <trkpt lat="51.994539" lon="8.898609">
        <ele>182.982528</ele>
        <time>2025-05-10T18:09:43.284Z</time>
      </trkpt>
      <trkpt lat="51.994562" lon="8.898798">
        <ele>183.041559</ele>
        <time>2025-05-10T18:09:45.771Z</time>
      </trkpt>
      <trkpt lat="51.994557" lon="8.898866">
        <ele>183.062542</ele>
        <time>2025-05-10T18:09:46.643Z</time>
      </trkpt>
      <trkpt lat="51.994517" lon="8.899389">
        <ele>182.759962</ele>
        <time>2025-05-10T18:09:53.038Z</time>
      </trkpt>
      <trkpt lat="51.994431" lon="8.899889">
        <ele>182.230706</ele>
        <time>2025-05-10T18:09:59.448Z</time>
      </trkpt>
      <trkpt lat="51.994441" lon="8.900165">
        <ele>181.948841</ele>
        <time>2025-05-10T18:10:03.048Z</time>
      </trkpt>
      <trkpt lat="51.994482" lon="8.900358">
        <ele>181.740699</ele>
        <time>2025-05-10T18:10:05.761Z</time>
      </trkpt>
      <trkpt lat="51.994718" lon="8.901003">
        <ele>180.975796</ele>
        <time>2025-05-10T18:10:16.008Z</time>
      </trkpt>
      <trkpt lat="51.994764" lon="8.901168">
        <ele>180.791143</ele>
        <time>2025-05-10T18:10:18.458Z</time>
      </trkpt>
      <trkpt lat="51.994783" lon="8.901377">
        <ele>180.575763</ele>
        <time>2025-05-10T18:10:21.322Z</time>
      </trkpt>
      <trkpt lat="51.994759" lon="8.901738">
        <ele>180.205592</ele>
        <time>2025-05-10T18:10:26.295Z</time>
      </trkpt>
      <trkpt lat="51.994682" lon="8.902111">
        <ele>180.312625</ele>
        <time>2025-05-10T18:10:31.968Z</time>
      </trkpt>
      <trkpt lat="51.994534" lon="8.902433">
        <ele>180.525745</ele>
        <time>2025-05-10T18:10:38.397Z</time>
      </trkpt>
      <trkpt lat="51.994290" lon="8.902770">
        <ele>180.801651</ele>
        <time>2025-05-10T18:10:48.037Z</time>
      </trkpt>
      <trkpt lat="51.994216" lon="8.902949">
        <ele>180.916005</ele>
        <time>2025-05-10T18:10:52.334Z</time>
      </trkpt>
      <trkpt lat="51.994158" lon="8.903219">
        <ele>181.067676</ele>
        <time>2025-05-10T18:10:58.225Z</time>
      </trkpt>
      <trkpt lat="51.993944" lon="8.904383">
        <ele>181.761294</ele>
        <time>2025-05-10T18:11:24.302Z</time>
      </trkpt>
      <trkpt lat="51.993842" lon="8.904898">
        <ele>182.639945</ele>
        <time>2025-05-10T18:11:36.973Z</time>
      </trkpt>
      <trkpt lat="51.993499" lon="8.906154">
        <ele>184.871537</ele>
        <time>2025-05-10T18:12:10.983Z</time>
      </trkpt>
      <trkpt lat="51.993483" lon="8.906204">
        <ele>184.963058</ele>
        <time>2025-05-10T18:12:12.320Z</time>
      </trkpt>
      <trkpt lat="51.993387" lon="8.906544">
        <ele>185.570570</ele>
        <time>2025-05-10T18:12:21.580Z</time>
      </trkpt>
      <trkpt lat="51.993258" lon="8.906999">
        <ele>186.384148</ele>
        <time>2025-05-10T18:12:34.038Z</time>
      </trkpt>
      <trkpt lat="51.993153" lon="8.907360">
        <ele>186.964417</ele>
        <time>2025-05-10T18:12:44.102Z</time>
      </trkpt>
      <trkpt lat="51.993143" lon="8.907394">
        <ele>187.018664</ele>
        <time>2025-05-10T18:12:45.069Z</time>
      </trkpt>
      <trkpt lat="51.992941" lon="8.908128">
        <ele>188.176129</ele>
        <time>2025-05-10T18:13:05.708Z</time>
      </trkpt>
      <trkpt lat="51.992917" lon="8.908654">
        <ele>188.935479</ele>
        <time>2025-05-10T18:13:18.107Z</time>
      </trkpt>
      <trkpt lat="51.992339" lon="8.908703">
        <ele>190.288721</ele>
        <time>2025-05-10T18:13:39.341Z</time>
      </trkpt>
      <trkpt lat="51.992257" lon="8.908738">
        <ele>190.486954</ele>
        <time>2025-05-10T18:13:42.361Z</time>
      </trkpt>
      <trkpt lat="51.992236" lon="8.908820">
        <ele>190.614813</ele>
        <time>2025-05-10T18:13:44.322Z</time>
      </trkpt>
      <trkpt lat="51.992231" lon="8.909092">
        <ele>190.861022</ele>
        <time>2025-05-10T18:13:50.130Z</time>
      </trkpt>
      <trkpt lat="51.992260" lon="8.909682">
        <ele>191.376848</ele>
        <time>2025-05-10T18:14:02.019Z</time>
      </trkpt>
      <trkpt lat="51.992233" lon="8.910065">
        <ele>191.712817</ele>
        <time>2025-05-10T18:14:09.725Z</time>
      </trkpt>
      <trkpt lat="51.992194" lon="8.910227">
        <ele>191.864408</ele>
        <time>2025-05-10T18:14:13.190Z</time>
      </trkpt>
      <trkpt lat="51.991920" lon="8.910908">
        <ele>192.573372</ele>
        <time>2025-05-10T18:14:29.665Z</time>
      </trkpt>
      <trkpt lat="51.991847" lon="8.911038">
        <ele>192.726705</ele>
        <time>2025-05-10T18:14:33.518Z</time>
      </trkpt>
      <trkpt lat="51.991760" lon="8.911136">
        <ele>192.876560</ele>
        <time>2025-05-10T18:14:39.151Z</time>
      </trkpt>
      <trkpt lat="51.991520" lon="8.911041">
        <ele>193.250920</ele>
        <time>2025-05-10T18:14:52.703Z</time>
      </trkpt>
      <trkpt lat="51.991478" lon="8.911029">
        <ele>193.346183</ele>
        <time>2025-05-10T18:14:55.072Z</time>
      </trkpt>
      <trkpt lat="51.990948" lon="8.910858">
        <ele>194.553269</ele>
        <time>2025-05-10T18:15:25.038Z</time>
      </trkpt>
      <trkpt lat="51.990911" lon="8.911169">
        <ele>194.988986</ele>
        <time>2025-05-10T18:15:32.447Z</time>
      </trkpt>
      <trkpt lat="51.990572" lon="8.912622">
        <ele>197.126363</ele>
        <time>2025-05-10T18:16:08.327Z</time>
      </trkpt>
      <trkpt lat="51.989946" lon="8.912354">
        <ele>198.352012</ele>
        <time>2025-05-10T18:16:33.165Z</time>
      </trkpt>
      <trkpt lat="51.989749" lon="8.913355">
        <ele>199.565122</ele>
        <time>2025-05-10T18:16:56.062Z</time>
      </trkpt>
      <trkpt lat="51.989725" lon="8.913434">
        <ele>199.666812</ele>
        <time>2025-05-10T18:16:57.930Z</time>
      </trkpt>
      <trkpt lat="51.989760" lon="8.913453">
        <ele>199.735991</ele>
        <time>2025-05-10T18:16:59.241Z</time>
      </trkpt>
      <trkpt lat="51.989746" lon="8.913544">
        <ele>199.844269</ele>
        <time>2025-05-10T18:17:01.745Z</time>
      </trkpt>
      <trkpt lat="51.989646" lon="8.913957">
        <ele>200.356559</ele>
        <time>2025-05-10T18:17:13.430Z</time>
      </trkpt>
      <trkpt lat="51.989561" lon="8.913912">
        <ele>200.524154</ele>
        <time>2025-05-10T18:17:17.247Z</time>
      </trkpt>
      <trkpt lat="51.989503" lon="8.913919">
        <ele>200.604484</ele>
        <time>2025-05-10T18:17:19.719Z</time>
      </trkpt>
      <trkpt lat="51.989543" lon="8.914426">
        <ele>200.912913</ele>
        <time>2025-05-10T18:17:29.975Z</time>
      </trkpt>
      <trkpt lat="51.989548" lon="8.914486">
        <ele>200.949448</ele>
        <time>2025-05-10T18:17:31.141Z</time>
      </trkpt>
      <trkpt lat="51.989603" lon="8.915042">
        <ele>201.289244</ele>
        <time>2025-05-10T18:17:41.684Z</time>
      </trkpt>
      <trkpt lat="51.989671" lon="8.915713">
        <ele>201.699577</ele>
        <time>2025-05-10T18:17:54.342Z</time>
      </trkpt>
      <trkpt lat="51.989696" lon="8.915985">
        <ele>201.865522</ele>
        <time>2025-05-10T18:17:59.643Z</time>
      </trkpt>
      <trkpt lat="51.989910" lon="8.918145">
        <ele>202.975186</ele>
        <time>2025-05-10T18:18:41.208Z</time>
      </trkpt>
      <trkpt lat="51.989956" lon="8.918631">
        <ele>203.198436</ele>
        <time>2025-05-10T18:18:50.352Z</time>
      </trkpt>
      <trkpt lat="51.989984" lon="8.918915">
        <ele>203.329023</ele>
        <time>2025-05-10T18:18:55.706Z</time>
      </trkpt>
      <trkpt lat="51.990102" lon="8.920170">
        <ele>203.970071</ele>
        <time>2025-05-10T18:19:18.950Z</time>
      </trkpt>
      <trkpt lat="51.990205" lon="8.921185">
        <ele>204.560954</ele>
        <time>2025-05-10T18:19:36.783Z</time>
      </trkpt>
      <trkpt lat="51.990276" lon="8.921896">
        <ele>204.974689</ele>
        <time>2025-05-10T18:19:50.493Z</time>
      </trkpt>
      <trkpt lat="51.990309" lon="8.922156">
        <ele>205.127173</ele>
        <time>2025-05-10T18:19:55.908Z</time>
      </trkpt>
      <trkpt lat="51.990314" lon="8.922202">
        <ele>205.154004</ele>
        <time>2025-05-10T18:19:56.859Z</time>
      </trkpt>
      <trkpt lat="51.990309" lon="8.922593">
        <ele>205.476497</ele>
        <time>2025-05-10T18:20:05.226Z</time>
      </trkpt>
      <trkpt lat="51.990355" lon="8.922738">
        <ele>205.803692</ele>
        <time>2025-05-10T18:20:08.825Z</time>
      </trkpt>
      <trkpt lat="51.990396" lon="8.923049">
        <ele>206.441684</ele>
        <time>2025-05-10T18:20:16.075Z</time>
      </trkpt>
      <trkpt lat="51.990481" lon="8.923880">
        <ele>208.131478</ele>
        <time>2025-05-10T18:20:37.382Z</time>
      </trkpt>
      <trkpt lat="51.990700" lon="8.926142">
        <ele>212.473719</ele>
        <time>2025-05-10T18:21:43.181Z</time>
      </trkpt>
      <trkpt lat="51.990704" lon="8.926333">
        <ele>212.794036</ele>
        <time>2025-05-10T18:21:48.307Z</time>
      </trkpt>
      <trkpt lat="51.990668" lon="8.926486">
        <ele>213.068560</ele>
        <time>2025-05-10T18:21:52.610Z</time>
      </trkpt>
      <trkpt lat="51.990604" lon="8.926634">
        <ele>213.371676</ele>
        <time>2025-05-10T18:21:57.276Z</time>
      </trkpt>
      <trkpt lat="51.990129" lon="8.927419">
        <ele>215.216316</ele>
        <time>2025-05-10T18:22:23.917Z</time>
      </trkpt>
      <trkpt lat="51.989593" lon="8.928553">
        <ele>215.953250</ele>
        <time>2025-05-10T18:22:50.231Z</time>
      </trkpt>
      <trkpt lat="51.989369" lon="8.928904">
        <ele>215.874623</ele>
        <time>2025-05-10T18:22:57.837Z</time>
      </trkpt>
      <trkpt lat="51.988406" lon="8.929512">
        <ele>215.754395</ele>
        <time>2025-05-10T18:23:21.428Z</time>
      </trkpt>
      <trkpt lat="51.988388" lon="8.929523">
        <ele>215.775651</ele>
        <time>2025-05-10T18:23:21.882Z</time>
      </trkpt>
      <trkpt lat="51.988226" lon="8.929600">
        <ele>215.962211</ele>
        <time>2025-05-10T18:23:25.937Z</time>
      </trkpt>
      <trkpt lat="51.988070" lon="8.929630">
        <ele>216.135833</ele>
        <time>2025-05-10T18:23:29.977Z</time>
      </trkpt>
      <trkpt lat="51.987332" lon="8.929654">
        <ele>216.951658</ele>
        <time>2025-05-10T18:23:53.444Z</time>
      </trkpt>
      <trkpt lat="51.985740" lon="8.929465">
        <ele>219.440187</ele>
        <time>2025-05-10T18:24:56.992Z</time>
      </trkpt>
      <trkpt lat="51.984106" lon="8.929708">
        <ele>220.862053</ele>
        <time>2025-05-10T18:25:46.947Z</time>
      </trkpt>
      <trkpt lat="51.983815" lon="8.929801">
        <ele>220.834490</ele>
        <time>2025-05-10T18:25:54.206Z</time>
      </trkpt>
      <trkpt lat="51.982945" lon="8.930175">
        <ele>220.585235</ele>
        <time>2025-05-10T18:26:15.159Z</time>
      </trkpt>
      <trkpt lat="51.982833" lon="8.930220">
        <ele>220.489454</ele>
        <time>2025-05-10T18:26:17.820Z</time>
      </trkpt>
      <trkpt lat="51.982765" lon="8.930241">
        <ele>220.431992</ele>
        <time>2025-05-10T18:26:19.388Z</time>
      </trkpt>
      <trkpt lat="51.982420" lon="8.930317">
        <ele>220.142966</ele>
        <time>2025-05-10T18:26:27.482Z</time>
      </trkpt>
      <trkpt lat="51.981365" lon="8.930438">
        <ele>219.232999</ele>
        <time>2025-05-10T18:26:53.002Z</time>
      </trkpt>
      <trkpt lat="51.980969" lon="8.930408">
        <ele>218.130555</ele>
        <time>2025-05-10T18:27:02.635Z</time>
      </trkpt>
      <trkpt lat="51.980715" lon="8.930389">
        <ele>217.423451</ele>
        <time>2025-05-10T18:27:08.388Z</time>
      </trkpt>
      <trkpt lat="51.980077" lon="8.930256">
        <ele>215.634656</ele>
        <time>2025-05-10T18:27:21.381Z</time>
      </trkpt>
      <trkpt lat="51.979740" lon="8.930210">
        <ele>214.694178</ele>
        <time>2025-05-10T18:27:27.709Z</time>
      </trkpt>
      <trkpt lat="51.979417" lon="8.930266">
        <ele>213.233843</ele>
        <time>2025-05-10T18:27:33.503Z</time>
      </trkpt>
      <trkpt lat="51.978842" lon="8.930493">
        <ele>209.701671</ele>
        <time>2025-05-10T18:27:43.528Z</time>
      </trkpt>
      <trkpt lat="51.978485" lon="8.930710">
        <ele>207.426291</ele>
        <time>2025-05-10T18:27:49.990Z</time>
      </trkpt>
      <trkpt lat="51.978414" lon="8.930761">
        <ele>206.962866</ele>
        <time>2025-05-10T18:27:51.288Z</time>
      </trkpt>
      <trkpt lat="51.978113" lon="8.930906">
        <ele>205.088780</ele>
        <time>2025-05-10T18:27:56.726Z</time>
      </trkpt>
      <trkpt lat="51.977185" lon="8.931191">
        <ele>203.745697</ele>
        <time>2025-05-10T18:28:15.644Z</time>
      </trkpt>
      <trkpt lat="51.976674" lon="8.931435">
        <ele>203.905118</ele>
        <time>2025-05-10T18:28:37.474Z</time>
      </trkpt>
      <trkpt lat="51.975417" lon="8.932235">
        <ele>202.757733</ele>
        <time>2025-05-10T18:29:29.214Z</time>
      </trkpt>
      <trkpt lat="51.974870" lon="8.932589">
        <ele>201.746301</ele>
        <time>2025-05-10T18:29:40.957Z</time>
      </trkpt>
      <trkpt lat="51.974708" lon="8.932691">
        <ele>201.447854</ele>
        <time>2025-05-10T18:29:44.087Z</time>
      </trkpt>
      <trkpt lat="51.974585" lon="8.932818">
        <ele>201.197476</ele>
        <time>2025-05-10T18:29:46.617Z</time>
      </trkpt>
      <trkpt lat="51.974359" lon="8.932925">
        <ele>200.232527</ele>
        <time>2025-05-10T18:29:50.604Z</time>
      </trkpt>
      <trkpt lat="51.974175" lon="8.932942">
        <ele>199.012934</ele>
        <time>2025-05-10T18:29:53.691Z</time>
      </trkpt>
      <trkpt lat="51.973850" lon="8.932863">
        <ele>196.838264</ele>
        <time>2025-05-10T18:29:59.252Z</time>
      </trkpt>
      <trkpt lat="51.973750" lon="8.933119">
        <ele>195.602545</ele>
        <time>2025-05-10T18:30:02.470Z</time>
      </trkpt>
      <trkpt lat="51.973658" lon="8.933276">
        <ele>194.719214</ele>
        <time>2025-05-10T18:30:04.782Z</time>
      </trkpt>
      <trkpt lat="51.973159" lon="8.933883">
        <ele>190.592816</ele>
        <time>2025-05-10T18:30:15.604Z</time>
      </trkpt>
      <trkpt lat="51.972777" lon="8.934544">
        <ele>187.796074</ele>
        <time>2025-05-10T18:30:25.413Z</time>
      </trkpt>
      <trkpt lat="51.972655" lon="8.934753">
        <ele>187.103831</ele>
        <time>2025-05-10T18:30:28.614Z</time>
      </trkpt>
      <trkpt lat="51.972491" lon="8.934980">
        <ele>186.262684</ele>
        <time>2025-05-10T18:30:32.557Z</time>
      </trkpt>
      <trkpt lat="51.972214" lon="8.935231">
        <ele>185.024589</ele>
        <time>2025-05-10T18:30:38.472Z</time>
      </trkpt>
      <trkpt lat="51.971432" lon="8.935832">
        <ele>182.162193</ele>
        <time>2025-05-10T18:30:56.020Z</time>
      </trkpt>
      <trkpt lat="51.971342" lon="8.935942">
        <ele>182.261521</ele>
        <time>2025-05-10T18:30:58.606Z</time>
      </trkpt>
      <trkpt lat="51.971290" lon="8.936078">
        <ele>182.348462</ele>
        <time>2025-05-10T18:31:00.947Z</time>
      </trkpt>
      <trkpt lat="51.971209" lon="8.936035">
        <ele>182.423599</ele>
        <time>2025-05-10T18:31:03.051Z</time>
      </trkpt>
      <trkpt lat="51.971071" lon="8.936132">
        <ele>182.556187</ele>
        <time>2025-05-10T18:31:06.933Z</time>
      </trkpt>
      <trkpt lat="51.970541" lon="8.936992">
        <ele>183.216910</ele>
        <time>2025-05-10T18:31:31.022Z</time>
      </trkpt>
      <trkpt lat="51.970281" lon="8.937319">
        <ele>183.506903</ele>
        <time>2025-05-10T18:31:44.015Z</time>
      </trkpt>
      <trkpt lat="51.970012" lon="8.937573">
        <ele>184.166937</ele>
        <time>2025-05-10T18:31:57.147Z</time>
      </trkpt>
      <trkpt lat="51.969475" lon="8.937681">
        <ele>186.080671</ele>
        <time>2025-05-10T18:32:21.201Z</time>
      </trkpt>
      <trkpt lat="51.968430" lon="8.938113">
        <ele>189.894516</ele>
        <time>2025-05-10T18:33:10.552Z</time>
      </trkpt>
      <trkpt lat="51.967931" lon="8.938196">
        <ele>191.020442</ele>
        <time>2025-05-10T18:33:31.558Z</time>
      </trkpt>
      <trkpt lat="51.967474" lon="8.938443">
        <ele>192.056465</ele>
        <time>2025-05-10T18:33:49.724Z</time>
      </trkpt>
      <trkpt lat="51.966755" lon="8.938757">
        <ele>193.657960</ele>
        <time>2025-05-10T18:34:14.766Z</time>
      </trkpt>
      <trkpt lat="51.966223" lon="8.938989">
        <ele>193.723450</ele>
        <time>2025-05-10T18:34:32.259Z</time>
      </trkpt>
      <trkpt lat="51.965516" lon="8.939093">
        <ele>193.469302</ele>
        <time>2025-05-10T18:34:51.047Z</time>
      </trkpt>
      <trkpt lat="51.965146" lon="8.939092">
        <ele>193.336840</ele>
        <time>2025-05-10T18:34:59.483Z</time>
      </trkpt>
      <trkpt lat="51.964426" lon="8.938804">
        <ele>191.828414</ele>
        <time>2025-05-10T18:35:14.871Z</time>
      </trkpt>
      <trkpt lat="51.963708" lon="8.938665">
        <ele>189.653035</ele>
        <time>2025-05-10T18:35:28.900Z</time>
      </trkpt>
      <trkpt lat="51.963245" lon="8.938620">
        <ele>188.257628</ele>
        <time>2025-05-10T18:35:37.869Z</time>
      </trkpt>
      <trkpt lat="51.962855" lon="8.938609">
        <ele>186.995433</ele>
        <time>2025-05-10T18:35:45.363Z</time>
      </trkpt>
      <trkpt lat="51.962702" lon="8.938669">
        <ele>186.465421</ele>
        <time>2025-05-10T18:35:48.366Z</time>
      </trkpt>
      <trkpt lat="51.962259" lon="8.938857">
        <ele>184.923585</ele>
        <time>2025-05-10T18:35:58.103Z</time>
      </trkpt>
      <trkpt lat="51.961133" lon="8.939108">
        <ele>181.217764</ele>
        <time>2025-05-10T18:36:23.277Z</time>
      </trkpt>
      <trkpt lat="51.961052" lon="8.939151">
        <ele>180.982339</ele>
        <time>2025-05-10T18:36:25.302Z</time>
      </trkpt>
      <trkpt lat="51.961003" lon="8.939237">
        <ele>180.782959</ele>
        <time>2025-05-10T18:36:27.026Z</time>
      </trkpt>
      <trkpt lat="51.960982" lon="8.939363">
        <ele>180.560773</ele>
        <time>2025-05-10T18:36:28.730Z</time>
      </trkpt>
      <trkpt lat="51.961006" lon="8.939479">
        <ele>180.352483</ele>
        <time>2025-05-10T18:36:30.352Z</time>
      </trkpt>
      <trkpt lat="51.961425" lon="8.940799">
        <ele>177.824969</ele>
        <time>2025-05-10T18:36:49.608Z</time>
      </trkpt>
      <trkpt lat="51.961489" lon="8.941185">
        <ele>177.144552</ele>
        <time>2025-05-10T18:36:54.454Z</time>
      </trkpt>
      <trkpt lat="51.961488" lon="8.941355">
        <ele>176.855166</ele>
        <time>2025-05-10T18:36:56.444Z</time>
      </trkpt>
      <trkpt lat="51.961445" lon="8.941458">
        <ele>176.479019</ele>
        <time>2025-05-10T18:36:57.879Z</time>
      </trkpt>
      <trkpt lat="51.961354" lon="8.941526">
        <ele>175.917340</ele>
        <time>2025-05-10T18:36:59.758Z</time>
      </trkpt>
      <trkpt lat="51.960778" lon="8.941631">
        <ele>172.667680</ele>
        <time>2025-05-10T18:37:10.169Z</time>
      </trkpt>
      <trkpt lat="51.960680" lon="8.941676">
        <ele>172.096671</ele>
        <time>2025-05-10T18:37:11.959Z</time>
      </trkpt>
      <trkpt lat="51.960584" lon="8.941751">
        <ele>171.499325</ele>
        <time>2025-05-10T18:37:13.818Z</time>
      </trkpt>
      <trkpt lat="51.960502" lon="8.941873">
        <ele>170.875626</ele>
        <time>2025-05-10T18:37:15.751Z</time>
      </trkpt>
      <trkpt lat="51.960468" lon="8.942068">
        <ele>170.175498</ele>
        <time>2025-05-10T18:37:17.915Z</time>
      </trkpt>
      <trkpt lat="51.961387" lon="8.946653">
        <ele>151.962383</ele>
        <time>2025-05-10T18:38:09.566Z</time>
      </trkpt>
      <trkpt lat="51.961659" lon="8.948010">
        <ele>147.000631</ele>
        <time>2025-05-10T18:38:24.947Z</time>
      </trkpt>
      <trkpt lat="51.961703" lon="8.948232">
        <ele>146.189776</ele>
        <time>2025-05-10T18:38:27.571Z</time>
      </trkpt>
      <trkpt lat="51.961874" lon="8.949102">
        <ele>144.487028</ele>
        <time>2025-05-10T18:38:38.322Z</time>
      </trkpt>
      <trkpt lat="51.960948" lon="8.948725">
        <ele>143.199956</ele>
        <time>2025-05-10T18:38:59.740Z</time>
      </trkpt>
      <trkpt lat="51.960764" lon="8.948695">
        <ele>142.950647</ele>
        <time>2025-05-10T18:39:05.219Z</time>
      </trkpt>
      <trkpt lat="51.960106" lon="8.948645">
        <ele>142.858666</ele>
        <time>2025-05-10T18:39:25.429Z</time>
      </trkpt>
      <trkpt lat="51.958994" lon="8.948578">
        <ele>143.944496</ele>
        <time>2025-05-10T18:40:01.566Z</time>
      </trkpt>
      <trkpt lat="51.958528" lon="8.948753">
        <ele>144.332644</ele>
        <time>2025-05-10T18:40:16.825Z</time>
      </trkpt>
      <trkpt lat="51.958098" lon="8.948726">
        <ele>144.502022</ele>
        <time>2025-05-10T18:40:29.517Z</time>
      </trkpt>
      <trkpt lat="51.958022" lon="8.948202">
        <ele>144.632595</ele>
        <time>2025-05-10T18:40:39.001Z</time>
      </trkpt>
      <trkpt lat="51.957850" lon="8.947518">
        <ele>144.811786</ele>
        <time>2025-05-10T18:40:51.490Z</time>
      </trkpt>
      <trkpt lat="51.956908" lon="8.944313">
        <ele>145.463429</ele>
        <time>2025-05-10T18:41:50.220Z</time>
      </trkpt>
      <trkpt lat="51.956666" lon="8.943374">
        <ele>147.277650</ele>
        <time>2025-05-10T18:42:11.806Z</time>
      </trkpt>
      <trkpt lat="51.956565" lon="8.942831">
        <ele>148.379790</ele>
        <time>2025-05-10T18:42:26.171Z</time>
      </trkpt>
      <trkpt lat="51.956512" lon="8.942387">
        <ele>149.258583</ele>
        <time>2025-05-10T18:42:38.789Z</time>
      </trkpt>
      <trkpt lat="51.956478" lon="8.941916">
        <ele>150.180063</ele>
        <time>2025-05-10T18:42:53.123Z</time>
      </trkpt>
      <trkpt lat="51.956472" lon="8.941143">
        <ele>152.091531</ele>
        <time>2025-05-10T18:43:17.276Z</time>
      </trkpt>
      <trkpt lat="51.956484" lon="8.940812">
        <ele>153.231576</ele>
        <time>2025-05-10T18:43:27.740Z</time>
      </trkpt>
      <trkpt lat="51.956519" lon="8.940326">
        <ele>154.913960</ele>
        <time>2025-05-10T18:43:43.119Z</time>
      </trkpt>
      <trkpt lat="51.956727" lon="8.938656">
        <ele>160.772001</ele>
        <time>2025-05-10T18:44:40.255Z</time>
      </trkpt>
      <trkpt lat="51.956889" lon="8.937425">
        <ele>165.443592</ele>
        <time>2025-05-10T18:45:25.687Z</time>
      </trkpt>
      <trkpt lat="51.956949" lon="8.936888">
        <ele>167.484772</ele>
        <time>2025-05-10T18:45:45.946Z</time>
      </trkpt>
      <trkpt lat="51.957001" lon="8.936106">
        <ele>170.426507</ele>
        <time>2025-05-10T18:46:13.339Z</time>
      </trkpt>
      <trkpt lat="51.956992" lon="8.935178">
        <ele>173.632523</ele>
        <time>2025-05-10T18:46:40.912Z</time>
      </trkpt>
      <trkpt lat="51.956900" lon="8.933333">
        <ele>179.533278</ele>
        <time>2025-05-10T18:47:37.527Z</time>
      </trkpt>
      <trkpt lat="51.956862" lon="8.933290">
        <ele>179.772923</ele>
        <time>2025-05-10T18:47:39.977Z</time>
      </trkpt>
      <trkpt lat="51.956656" lon="8.933169">
        <ele>180.906206</ele>
        <time>2025-05-10T18:47:51.998Z</time>
      </trkpt>
      <trkpt lat="51.956326" lon="8.933156">
        <ele>182.551265</ele>
        <time>2025-05-10T18:48:10.637Z</time>
      </trkpt>
      <trkpt lat="51.956144" lon="8.933243">
        <ele>183.481951</ele>
        <time>2025-05-10T18:48:21.593Z</time>
      </trkpt>
      <trkpt lat="51.956085" lon="8.933294">
        <ele>183.809862</ele>
        <time>2025-05-10T18:48:25.537Z</time>
      </trkpt>
      <trkpt lat="51.955956" lon="8.933505">
        <ele>184.708330</ele>
        <time>2025-05-10T18:48:36.536Z</time>
      </trkpt>
      <trkpt lat="51.955900" lon="8.933597">
        <ele>185.099229</ele>
        <time>2025-05-10T18:48:41.264Z</time>
      </trkpt>
      <trkpt lat="51.955682" lon="8.933853">
        <ele>186.419220</ele>
        <time>2025-05-10T18:48:57.157Z</time>
      </trkpt>
      <trkpt lat="51.955390" lon="8.934022">
        <ele>187.939934</ele>
        <time>2025-05-10T18:49:12.799Z</time>
      </trkpt>
      <trkpt lat="51.954992" lon="8.934094">
        <ele>189.904316</ele>
        <time>2025-05-10T18:49:29.316Z</time>
      </trkpt>
      <trkpt lat="51.954790" lon="8.934091">
        <ele>190.347840</ele>
        <time>2025-05-10T18:49:36.147Z</time>
      </trkpt>
      <trkpt lat="51.954248" lon="8.933984">
        <ele>190.826875</ele>
        <time>2025-05-10T18:49:52.318Z</time>
      </trkpt>
      <trkpt lat="51.954101" lon="8.933987">
        <ele>190.955857</ele>
        <time>2025-05-10T18:49:56.342Z</time>
      </trkpt>
      <trkpt lat="51.954018" lon="8.934001">
        <ele>191.029070</ele>
        <time>2025-05-10T18:49:58.547Z</time>
      </trkpt>
      <trkpt lat="51.953841" lon="8.934118">
        <ele>191.196754</ele>
        <time>2025-05-10T18:50:03.566Z</time>
      </trkpt>
      <trkpt lat="51.953447" lon="8.934489">
        <ele>191.596424</ele>
        <time>2025-05-10T18:50:15.841Z</time>
      </trkpt>
      <trkpt lat="51.952810" lon="8.935009">
        <ele>192.717452</ele>
        <time>2025-05-10T18:50:38.948Z</time>
      </trkpt>
      <trkpt lat="51.952503" lon="8.935290">
        <ele>193.395530</ele>
        <time>2025-05-10T18:50:52.105Z</time>
      </trkpt>
      <trkpt lat="51.952180" lon="8.935670">
        <ele>194.163049</ele>
        <time>2025-05-10T18:51:08.360Z</time>
      </trkpt>
      <trkpt lat="51.952017" lon="8.935864">
        <ele>194.551934</ele>
        <time>2025-05-10T18:51:16.751Z</time>
      </trkpt>
      <trkpt lat="51.951946" lon="8.935957">
        <ele>194.727473</ele>
        <time>2025-05-10T18:51:20.401Z</time>
      </trkpt>
      <trkpt lat="51.951627" lon="8.936139">
        <ele>195.188961</ele>
        <time>2025-05-10T18:51:33.610Z</time>
      </trkpt>
      <trkpt lat="51.951497" lon="8.936169">
        <ele>195.012169</ele>
        <time>2025-05-10T18:51:38.182Z</time>
      </trkpt>
      <trkpt lat="51.951283" lon="8.936135">
        <ele>194.722665</ele>
        <time>2025-05-10T18:51:44.955Z</time>
      </trkpt>
      <trkpt lat="51.951121" lon="8.936124">
        <ele>194.504359</ele>
        <time>2025-05-10T18:51:49.455Z</time>
      </trkpt>
      <trkpt lat="51.950755" lon="8.936219">
        <ele>194.005316</ele>
        <time>2025-05-10T18:51:58.739Z</time>
      </trkpt>
      <trkpt lat="51.949908" lon="8.936317">
        <ele>192.862030</ele>
        <time>2025-05-10T18:52:16.570Z</time>
      </trkpt>
      <trkpt lat="51.949600" lon="8.936279">
        <ele>191.336114</ele>
        <time>2025-05-10T18:52:22.399Z</time>
      </trkpt>
      <trkpt lat="51.949549" lon="8.936293">
        <ele>191.072712</ele>
        <time>2025-05-10T18:52:23.369Z</time>
      </trkpt>
      <trkpt lat="51.949211" lon="8.936604">
        <ele>189.093962</ele>
        <time>2025-05-10T18:52:30.567Z</time>
      </trkpt>
      <trkpt lat="51.948740" lon="8.937118">
        <ele>186.203354</ele>
        <time>2025-05-10T18:52:40.960Z</time>
      </trkpt>
      <trkpt lat="51.948376" lon="8.937382">
        <ele>184.172947</ele>
        <time>2025-05-10T18:52:48.444Z</time>
      </trkpt>
      <trkpt lat="51.948280" lon="8.937469">
        <ele>183.663694</ele>
        <time>2025-05-10T18:52:50.556Z</time>
      </trkpt>
      <trkpt lat="51.947936" lon="8.937779">
        <ele>183.056074</ele>
        <time>2025-05-10T18:52:58.492Z</time>
      </trkpt>
      <trkpt lat="51.947725" lon="8.937839">
        <ele>182.725297</ele>
        <time>2025-05-10T18:53:03.112Z</time>
      </trkpt>
      <trkpt lat="51.947445" lon="8.937830">
        <ele>182.292858</ele>
        <time>2025-05-10T18:53:09.630Z</time>
      </trkpt>
      <trkpt lat="51.947270" lon="8.937889">
        <ele>182.016864</ele>
        <time>2025-05-10T18:53:14.191Z</time>
      </trkpt>
      <trkpt lat="51.946907" lon="8.938082">
        <ele>181.427014</ele>
        <time>2025-05-10T18:53:25.076Z</time>
      </trkpt>
      <trkpt lat="51.946195" lon="8.938576">
        <ele>180.954403</ele>
        <time>2025-05-10T18:53:48.139Z</time>
      </trkpt>
      <trkpt lat="51.945552" lon="8.938924">
        <ele>181.025452</ele>
        <time>2025-05-10T18:54:05.954Z</time>
      </trkpt>
      <trkpt lat="51.945237" lon="8.939046">
        <ele>181.059397</ele>
        <time>2025-05-10T18:54:14.928Z</time>
      </trkpt>
      <trkpt lat="51.944872" lon="8.939131">
        <ele>181.119806</ele>
        <time>2025-05-10T18:54:25.190Z</time>
      </trkpt>
      <trkpt lat="51.944508" lon="8.939294">
        <ele>181.954886</ele>
        <time>2025-05-10T18:54:36.587Z</time>
      </trkpt>
      <trkpt lat="51.944382" lon="8.939193">
        <ele>182.265692</ele>
        <time>2025-05-10T18:54:41.123Z</time>
      </trkpt>
      <trkpt lat="51.944302" lon="8.939010">
        <ele>182.571525</ele>
        <time>2025-05-10T18:54:45.802Z</time>
      </trkpt>
      <trkpt lat="51.944182" lon="8.938445">
        <ele>183.386176</ele>
        <time>2025-05-10T18:54:59.541Z</time>
      </trkpt>
      <trkpt lat="51.944134" lon="8.938424">
        <ele>183.496119</ele>
        <time>2025-05-10T18:55:01.567Z</time>
      </trkpt>
      <trkpt lat="51.943943" lon="8.938427">
        <ele>183.918530</ele>
        <time>2025-05-10T18:55:09.647Z</time>
      </trkpt>
      <trkpt lat="51.943686" lon="8.938430">
        <ele>184.486893</ele>
        <time>2025-05-10T18:55:20.779Z</time>
      </trkpt>
      <trkpt lat="51.943636" lon="8.938279">
        <ele>184.720559</ele>
        <time>2025-05-10T18:55:26.216Z</time>
      </trkpt>
      <trkpt lat="51.943478" lon="8.937848">
        <ele>185.737487</ele>
        <time>2025-05-10T18:55:42.555Z</time>
      </trkpt>
      <trkpt lat="51.943310" lon="8.937454">
        <ele>187.051163</ele>
        <time>2025-05-10T18:55:58.901Z</time>
      </trkpt>
      <trkpt lat="51.943269" lon="8.937360">
        <ele>187.366921</ele>
        <time>2025-05-10T18:56:02.939Z</time>
      </trkpt>
      <trkpt lat="51.943073" lon="8.936937">
        <ele>188.817985</ele>
        <time>2025-05-10T18:56:21.568Z</time>
      </trkpt>
      <trkpt lat="51.942847" lon="8.936438">
        <ele>190.515928</ele>
        <time>2025-05-10T18:56:44.049Z</time>
      </trkpt>
      <trkpt lat="51.942775" lon="8.936268">
        <ele>191.081517</ele>
        <time>2025-05-10T18:56:51.613Z</time>
      </trkpt>
      <trkpt lat="51.942391" lon="8.935362">
        <ele>194.097928</ele>
        <time>2025-05-10T18:57:30.478Z</time>
      </trkpt>
      <trkpt lat="51.942154" lon="8.934579">
        <ele>196.493281</ele>
        <time>2025-05-10T18:58:00.488Z</time>
      </trkpt>
      <trkpt lat="51.942026" lon="8.934252">
        <ele>197.556974</ele>
        <time>2025-05-10T18:58:13.721Z</time>
      </trkpt>
      <trkpt lat="51.942189" lon="8.933796">
        <ele>199.004460</ele>
        <time>2025-05-10T18:58:29.095Z</time>
      </trkpt>
      <trkpt lat="51.942540" lon="8.932811">
        <ele>202.039863</ele>
        <time>2025-05-10T18:59:03.193Z</time>
      </trkpt>
      <trkpt lat="51.942620" lon="8.932400">
        <ele>203.122397</ele>
        <time>2025-05-10T18:59:16.634Z</time>
      </trkpt>
      <trkpt lat="51.942654" lon="8.932053">
        <ele>204.004885</ele>
        <time>2025-05-10T18:59:27.464Z</time>
      </trkpt>
      <trkpt lat="51.942702" lon="8.930965">
        <ele>206.744563</ele>
        <time>2025-05-10T18:59:58.961Z</time>
      </trkpt>
      <trkpt lat="51.942809" lon="8.930411">
        <ele>208.202720</ele>
        <time>2025-05-10T19:00:14.589Z</time>
      </trkpt>
      <trkpt lat="51.942666" lon="8.930359">
        <ele>208.527395</ele>
        <time>2025-05-10T19:00:23.253Z</time>
      </trkpt>
      <trkpt lat="51.942309" lon="8.929599">
        <ele>209.223301</ele>
        <time>2025-05-10T19:00:55.524Z</time>
      </trkpt>
      <trkpt lat="51.942232" lon="8.929058">
        <ele>209.627687</ele>
        <time>2025-05-10T19:01:12.447Z</time>
      </trkpt>
      <trkpt lat="51.942162" lon="8.928227">
        <ele>210.238545</ele>
        <time>2025-05-10T19:01:36.435Z</time>
      </trkpt>
      <trkpt lat="51.942010" lon="8.927014">
        <ele>210.206103</ele>
        <time>2025-05-10T19:02:08.409Z</time>
      </trkpt>
      <trkpt lat="51.941988" lon="8.924588">
        <ele>209.448083</ele>
        <time>2025-05-10T19:03:09.429Z</time>
      </trkpt>
      <trkpt lat="51.942101" lon="8.924542">
        <ele>209.502809</ele>
        <time>2025-05-10T19:03:14.563Z</time>
      </trkpt>
      <trkpt lat="51.942312" lon="8.924515">
        <ele>209.602233</ele>
        <time>2025-05-10T19:03:24.123Z</time>
      </trkpt>
      <trkpt lat="51.943994" lon="8.924301">
        <ele>210.578647</ele>
        <time>2025-05-10T19:04:46.939Z</time>
      </trkpt>
      <trkpt lat="51.944438" lon="8.924173">
        <ele>210.987614</ele>
        <time>2025-05-10T19:05:08.874Z</time>
      </trkpt>
      <trkpt lat="51.944659" lon="8.924014">
        <ele>211.206863</ele>
        <time>2025-05-10T19:05:20.623Z</time>
      </trkpt>
      <trkpt lat="51.944968" lon="8.923571">
        <ele>211.580838</ele>
        <time>2025-05-10T19:05:40.713Z</time>
      </trkpt>
      <trkpt lat="51.945113" lon="8.923353">
        <ele>211.760124</ele>
        <time>2025-05-10T19:05:50.239Z</time>
      </trkpt>
      <trkpt lat="51.945275" lon="8.923109">
        <ele>211.884249</ele>
        <time>2025-05-10T19:06:00.953Z</time>
      </trkpt>
      <trkpt lat="51.945708" lon="8.922796">
        <ele>212.065981</ele>
        <time>2025-05-10T19:06:16.264Z</time>
      </trkpt>
      <trkpt lat="51.945898" lon="8.922724">
        <ele>212.140781</ele>
        <time>2025-05-10T19:06:22.672Z</time>
      </trkpt>
      <trkpt lat="51.946589" lon="8.922840">
        <ele>212.407102</ele>
        <time>2025-05-10T19:06:43.961Z</time>
      </trkpt>
      <trkpt lat="51.946859" lon="8.922777">
        <ele>212.511676</ele>
        <time>2025-05-10T19:06:51.005Z</time>
      </trkpt>
      <trkpt lat="51.946926" lon="8.922917">
        <ele>212.278249</ele>
        <time>2025-05-10T19:06:53.683Z</time>
      </trkpt>
      <trkpt lat="51.947013" lon="8.922825">
        <ele>212.010842</ele>
        <time>2025-05-10T19:06:56.186Z</time>
      </trkpt>
      <trkpt lat="51.947153" lon="8.922678">
        <ele>211.581438</ele>
        <time>2025-05-10T19:07:00.091Z</time>
      </trkpt>
      <trkpt lat="51.946724" lon="8.921781">
        <ele>209.779459</ele>
        <time>2025-05-10T19:07:14.575Z</time>
      </trkpt>
      <trkpt lat="51.946519" lon="8.921287">
        <ele>208.834263</ele>
        <time>2025-05-10T19:07:21.615Z</time>
      </trkpt>
      <trkpt lat="51.946274" lon="8.920658">
        <ele>207.491731</ele>
        <time>2025-05-10T19:07:30.186Z</time>
      </trkpt>
      <trkpt lat="51.946321" lon="8.920619">
        <ele>207.261612</ele>
        <time>2025-05-10T19:07:31.180Z</time>
      </trkpt>
      <trkpt lat="51.946169" lon="8.920177">
        <ele>205.901670</ele>
        <time>2025-05-10T19:07:36.966Z</time>
      </trkpt>
      <trkpt lat="51.945954" lon="8.919556">
        <ele>203.987903</ele>
        <time>2025-05-10T19:07:45.008Z</time>
      </trkpt>
      <trkpt lat="51.945903" lon="8.919580">
        <ele>203.756428</ele>
        <time>2025-05-10T19:07:46.364Z</time>
      </trkpt>
      <trkpt lat="51.945627" lon="8.918651">
        <ele>200.985449</ele>
        <time>2025-05-10T19:07:57.993Z</time>
      </trkpt>
      <trkpt lat="51.945407" lon="8.917795">
        <ele>199.133293</ele>
        <time>2025-05-10T19:08:08.719Z</time>
      </trkpt>
      <trkpt lat="51.945076" lon="8.916153">
        <ele>196.404166</ele>
        <time>2025-05-10T19:08:30.401Z</time>
      </trkpt>
      <trkpt lat="51.944993" lon="8.915671">
        <ele>195.613572</ele>
        <time>2025-05-10T19:08:37.481Z</time>
      </trkpt>
      <trkpt lat="51.944925" lon="8.915057">
        <ele>195.084571</ele>
        <time>2025-05-10T19:08:46.499Z</time>
      </trkpt>
      <trkpt lat="51.944792" lon="8.913787">
        <ele>194.198570</ele>
        <time>2025-05-10T19:09:04.748Z</time>
      </trkpt>
      <trkpt lat="51.944714" lon="8.913393">
        <ele>193.913950</ele>
        <time>2025-05-10T19:09:10.416Z</time>
      </trkpt>
      <trkpt lat="51.944759" lon="8.913368">
        <ele>193.860878</ele>
        <time>2025-05-10T19:09:11.490Z</time>
      </trkpt>
      <trkpt lat="51.944811" lon="8.913325">
        <ele>193.795755</ele>
        <time>2025-05-10T19:09:12.800Z</time>
      </trkpt>
      <trkpt lat="51.944849" lon="8.913300">
        <ele>193.750002</ele>
        <time>2025-05-10T19:09:13.707Z</time>
      </trkpt>
      <trkpt lat="51.944695" lon="8.912880">
        <ele>193.404933</ele>
        <time>2025-05-10T19:09:20.684Z</time>
      </trkpt>
      <trkpt lat="51.944777" lon="8.912679">
        <ele>193.145185</ele>
        <time>2025-05-10T19:09:24.429Z</time>
      </trkpt>
      <trkpt lat="51.944749" lon="8.911904">
        <ele>192.308575</ele>
        <time>2025-05-10T19:09:36.468Z</time>
      </trkpt>
      <trkpt lat="51.944558" lon="8.911860">
        <ele>191.971312</ele>
        <time>2025-05-10T19:09:41.068Z</time>
      </trkpt>
      <trkpt lat="51.944051" lon="8.911778">
        <ele>191.080564</ele>
        <time>2025-05-10T19:09:52.583Z</time>
      </trkpt>
      <trkpt lat="51.943947" lon="8.911748">
        <ele>190.895896</ele>
        <time>2025-05-10T19:09:54.758Z</time>
      </trkpt>
      <trkpt lat="51.944046" lon="8.911442">
        <ele>190.523471</ele>
        <time>2025-05-10T19:09:59.070Z</time>
      </trkpt>
      <trkpt lat="51.944182" lon="8.911294">
        <ele>190.185034</ele>
        <time>2025-05-10T19:10:02.314Z</time>
      </trkpt>
      <trkpt lat="51.944380" lon="8.910710">
        <ele>188.687834</ele>
        <time>2025-05-10T19:10:10.179Z</time>
      </trkpt>
      <trkpt lat="51.944648" lon="8.909918">
        <ele>186.658306</ele>
        <time>2025-05-10T19:10:20.475Z</time>
      </trkpt>
      <trkpt lat="51.944734" lon="8.909721">
        <ele>186.116046</ele>
        <time>2025-05-10T19:10:23.252Z</time>
      </trkpt>
      <trkpt lat="51.944851" lon="8.909422">
        <ele>185.320497</ele>
        <time>2025-05-10T19:10:27.364Z</time>
      </trkpt>
      <trkpt lat="51.945215" lon="8.908143">
        <ele>182.433117</ele>
        <time>2025-05-10T19:10:44.385Z</time>
      </trkpt>
      <trkpt lat="51.945526" lon="8.907381">
        <ele>180.741464</ele>
        <time>2025-05-10T19:10:55.723Z</time>
      </trkpt>
      <trkpt lat="51.945706" lon="8.907038">
        <ele>179.907633</ele>
        <time>2025-05-10T19:11:01.268Z</time>
      </trkpt>
      <trkpt lat="51.945723" lon="8.906950">
        <ele>179.736930</ele>
        <time>2025-05-10T19:11:02.376Z</time>
      </trkpt>
      <trkpt lat="51.945760" lon="8.906876">
        <ele>179.560556</ele>
        <time>2025-05-10T19:11:03.548Z</time>
      </trkpt>
      <trkpt lat="51.945818" lon="8.906762">
        <ele>179.286945</ele>
        <time>2025-05-10T19:11:05.332Z</time>
      </trkpt>
      <trkpt lat="51.945865" lon="8.906694">
        <ele>179.097833</ele>
        <time>2025-05-10T19:11:06.595Z</time>
      </trkpt>
      <trkpt lat="51.945867" lon="8.906618">
        <ele>178.957027</ele>
        <time>2025-05-10T19:11:07.509Z</time>
      </trkpt>
      <trkpt lat="51.945863" lon="8.906546">
        <ele>178.823213</ele>
        <time>2025-05-10T19:11:08.364Z</time>
      </trkpt>
      <trkpt lat="51.945978" lon="8.906446">
        <ele>178.431396</ele>
        <time>2025-05-10T19:11:10.914Z</time>
      </trkpt>
      <trkpt lat="51.946508" lon="8.905314">
        <ele>175.717678</ele>
        <time>2025-05-10T19:11:27.950Z</time>
      </trkpt>
      <trkpt lat="51.946775" lon="8.904422">
        <ele>173.822371</ele>
        <time>2025-05-10T19:11:39.995Z</time>
      </trkpt>
      <trkpt lat="51.946957" lon="8.903645">
        <ele>172.301301</ele>
        <time>2025-05-10T19:11:50.176Z</time>
      </trkpt>
      <trkpt lat="51.947338" lon="8.901560">
        <ele>168.686956</ele>
        <time>2025-05-10T19:12:17.324Z</time>
      </trkpt>
      <trkpt lat="51.947508" lon="8.900547">
        <ele>167.265503</ele>
        <time>2025-05-10T19:12:30.229Z</time>
      </trkpt>
      <trkpt lat="51.947491" lon="8.900313">
        <ele>167.005783</ele>
        <time>2025-05-10T19:12:33.194Z</time>
      </trkpt>
      <trkpt lat="51.947513" lon="8.900209">
        <ele>166.884582</ele>
        <time>2025-05-10T19:12:34.581Z</time>
      </trkpt>
      <trkpt lat="51.947545" lon="8.900022">
        <ele>166.670658</ele>
        <time>2025-05-10T19:12:37.051Z</time>
      </trkpt>
      <trkpt lat="51.947569" lon="8.899894">
        <ele>166.523182</ele>
        <time>2025-05-10T19:12:38.778Z</time>
      </trkpt>
      <trkpt lat="51.947604" lon="8.899892">
        <ele>166.460553</ele>
        <time>2025-05-10T19:12:39.505Z</time>
      </trkpt>
      <trkpt lat="51.947646" lon="8.899813">
        <ele>166.345555</ele>
        <time>2025-05-10T19:12:40.834Z</time>
      </trkpt>
      <trkpt lat="51.947730" lon="8.899865">
        <ele>166.184773</ele>
        <time>2025-05-10T19:12:42.758Z</time>
      </trkpt>
      <trkpt lat="51.947817" lon="8.899913">
        <ele>166.020439</ele>
        <time>2025-05-10T19:12:44.746Z</time>
      </trkpt>
      <trkpt lat="51.947817" lon="8.900189">
        <ele>165.716211</ele>
        <time>2025-05-10T19:12:48.545Z</time>
      </trkpt>
      <trkpt lat="51.947869" lon="8.900313">
        <ele>165.550894</ele>
        <time>2025-05-10T19:12:50.672Z</time>
      </trkpt>
      <trkpt lat="51.948422" lon="8.900932">
        <ele>164.666832</ele>
        <time>2025-05-10T19:13:06.358Z</time>
      </trkpt>
      <trkpt lat="51.948551" lon="8.900635">
        <ele>164.644100</ele>
        <time>2025-05-10T19:13:12.075Z</time>
      </trkpt>
      <trkpt lat="51.948562" lon="8.900609">
        <ele>164.642127</ele>
        <time>2025-05-10T19:13:12.583Z</time>
      </trkpt>
      <trkpt lat="51.948682" lon="8.900458">
        <ele>164.626711</ele>
        <time>2025-05-10T19:13:16.513Z</time>
      </trkpt>
      <trkpt lat="51.949307" lon="8.899242">
        <ele>164.527649</ele>
        <time>2025-05-10T19:13:42.594Z</time>
      </trkpt>
      <trkpt lat="51.949959" lon="8.898603">
        <ele>164.745295</ele>
        <time>2025-05-10T19:14:04.932Z</time>
      </trkpt>
      <trkpt lat="51.950141" lon="8.898486">
        <ele>164.835961</ele>
        <time>2025-05-10T19:14:10.949Z</time>
      </trkpt>
      <trkpt lat="51.950379" lon="8.898436">
        <ele>164.947108</ele>
        <time>2025-05-10T19:14:17.946Z</time>
      </trkpt>
      <trkpt lat="51.950562" lon="8.898264">
        <ele>165.045055</ele>
        <time>2025-05-10T19:14:23.674Z</time>
      </trkpt>
      <trkpt lat="51.950814" lon="8.897898">
        <ele>165.201695</ele>
        <time>2025-05-10T19:14:32.996Z</time>
      </trkpt>
      <trkpt lat="51.950886" lon="8.897422">
        <ele>165.340400</ele>
        <time>2025-05-10T19:14:41.639Z</time>
      </trkpt>
      <trkpt lat="51.950723" lon="8.896834">
        <ele>165.482221</ele>
        <time>2025-05-10T19:14:53.876Z</time>
      </trkpt>
      <trkpt lat="51.950715" lon="8.896791">
        <ele>165.492101</ele>
        <time>2025-05-10T19:14:54.768Z</time>
      </trkpt>
      <trkpt lat="51.950902" lon="8.896016">
        <ele>165.675173</ele>
        <time>2025-05-10T19:15:11.412Z</time>
      </trkpt>
      <trkpt lat="51.951099" lon="8.895588">
        <ele>165.792674</ele>
        <time>2025-05-10T19:15:21.791Z</time>
      </trkpt>
      <trkpt lat="51.951327" lon="8.895347">
        <ele>165.889790</ele>
        <time>2025-05-10T19:15:30.929Z</time>
      </trkpt>
      <trkpt lat="51.951366" lon="8.895169">
        <ele>165.931344</ele>
        <time>2025-05-10T19:15:34.899Z</time>
      </trkpt>
      <trkpt lat="51.951419" lon="8.894926">
        <ele>165.930048</ele>
        <time>2025-05-10T19:15:40.164Z</time>
      </trkpt>
      <trkpt lat="51.951899" lon="8.892826">
        <ele>163.492589</ele>
        <time>2025-05-10T19:16:14.219Z</time>
      </trkpt>
      <trkpt lat="51.952083" lon="8.891993">
        <ele>162.413636</ele>
        <time>2025-05-10T19:16:26.212Z</time>
      </trkpt>
      <trkpt lat="51.952281" lon="8.891081">
        <ele>160.913977</ele>
        <time>2025-05-10T19:16:38.949Z</time>
      </trkpt>
      <trkpt lat="51.952400" lon="8.890534">
        <ele>160.014309</ele>
        <time>2025-05-10T19:16:46.748Z</time>
      </trkpt>
      <trkpt lat="51.952448" lon="8.890298">
        <ele>159.628871</ele>
        <time>2025-05-10T19:16:49.885Z</time>
      </trkpt>
      <trkpt lat="51.952680" lon="8.889147">
        <ele>158.491908</ele>
        <time>2025-05-10T19:17:07.106Z</time>
      </trkpt>
      <trkpt lat="51.952702" lon="8.889045">
        <ele>158.560734</ele>
        <time>2025-05-10T19:17:08.750Z</time>
      </trkpt>
      <trkpt lat="51.952762" lon="8.889052">
        <ele>158.622897</ele>
        <time>2025-05-10T19:17:10.488Z</time>
      </trkpt>
      <trkpt lat="51.953143" lon="8.889015">
        <ele>159.017320</ele>
        <time>2025-05-10T19:17:21.857Z</time>
      </trkpt>
      <trkpt lat="51.953258" lon="8.889040">
        <ele>159.137221</ele>
        <time>2025-05-10T19:17:25.810Z</time>
      </trkpt>
      <trkpt lat="51.953325" lon="8.889160">
        <ele>159.240344</ele>
        <time>2025-05-10T19:17:29.267Z</time>
      </trkpt>
      <trkpt lat="51.953865" lon="8.889251">
        <ele>159.801372</ele>
        <time>2025-05-10T19:17:49.178Z</time>
      </trkpt>
      <trkpt lat="51.954153" lon="8.889228">
        <ele>160.099346</ele>
        <time>2025-05-10T19:17:59.728Z</time>
      </trkpt>
      <trkpt lat="51.954654" lon="8.889053">
        <ele>160.978873</ele>
        <time>2025-05-10T19:18:18.006Z</time>
      </trkpt>
      <trkpt lat="51.955285" lon="8.889024">
        <ele>162.093195</ele>
        <time>2025-05-10T19:18:40.537Z</time>
      </trkpt>
      <trkpt lat="51.955476" lon="8.888973">
        <ele>162.434894</ele>
        <time>2025-05-10T19:18:47.365Z</time>
      </trkpt>
      <trkpt lat="51.955656" lon="8.888873">
        <ele>162.770747</ele>
        <time>2025-05-10T19:18:54.107Z</time>
      </trkpt>
      <trkpt lat="51.955746" lon="8.888798">
        <ele>162.949346</ele>
        <time>2025-05-10T19:18:57.634Z</time>
      </trkpt>
      <trkpt lat="51.956018" lon="8.888683">
        <ele>163.381549</ele>
        <time>2025-05-10T19:19:07.500Z</time>
      </trkpt>
      <trkpt lat="51.957676" lon="8.887986">
        <ele>164.978905</ele>
        <time>2025-05-10T19:20:01.531Z</time>
      </trkpt>
      <trkpt lat="51.957814" lon="8.887929">
        <ele>164.869173</ele>
        <time>2025-05-10T19:20:05.367Z</time>
      </trkpt>
      <trkpt lat="51.958653" lon="8.887568">
        <ele>164.099726</ele>
        <time>2025-05-10T19:20:26.519Z</time>
      </trkpt>
      <trkpt lat="51.959064" lon="8.887393">
        <ele>163.723054</ele>
        <time>2025-05-10T19:20:35.743Z</time>
      </trkpt>
      <trkpt lat="51.959405" lon="8.887247">
        <ele>163.410425</ele>
        <time>2025-05-10T19:20:43.453Z</time>
      </trkpt>
      <trkpt lat="51.959778" lon="8.887083">
        <ele>162.287215</ele>
        <time>2025-05-10T19:20:51.663Z</time>
      </trkpt>
      <trkpt lat="51.960064" lon="8.886969">
        <ele>161.399223</ele>
        <time>2025-05-10T19:20:57.600Z</time>
      </trkpt>
      <trkpt lat="51.960404" lon="8.886824">
        <ele>160.339232</ele>
        <time>2025-05-10T19:21:04.463Z</time>
      </trkpt>
      <trkpt lat="51.960681" lon="8.886697">
        <ele>159.471317</ele>
        <time>2025-05-10T19:21:09.953Z</time>
      </trkpt>
      <trkpt lat="51.961178" lon="8.886478">
        <ele>157.926788</ele>
        <time>2025-05-10T19:21:19.814Z</time>
      </trkpt>
      <trkpt lat="51.961202" lon="8.886468">
        <ele>157.864217</ele>
        <time>2025-05-10T19:21:20.289Z</time>
      </trkpt>
      <trkpt lat="51.961517" lon="8.886318">
        <ele>157.035240</ele>
        <time>2025-05-10T19:21:26.534Z</time>
      </trkpt>
      <trkpt lat="51.961619" lon="8.886270">
        <ele>156.767058</ele>
        <time>2025-05-10T19:21:28.512Z</time>
      </trkpt>
      <trkpt lat="51.961705" lon="8.886178">
        <ele>156.506953</ele>
        <time>2025-05-10T19:21:30.428Z</time>
      </trkpt>
      <trkpt lat="51.961958" lon="8.886456">
        <ele>155.735410</ele>
        <time>2025-05-10T19:21:36.163Z</time>
      </trkpt>
      <trkpt lat="51.961990" lon="8.886382">
        <ele>155.594741</ele>
        <time>2025-05-10T19:21:37.227Z</time>
      </trkpt>
      <trkpt lat="51.962016" lon="8.886325">
        <ele>155.484392</ele>
        <time>2025-05-10T19:21:38.094Z</time>
      </trkpt>
      <trkpt lat="51.961911" lon="8.886214">
        <ele>155.167953</ele>
        <time>2025-05-10T19:21:40.577Z</time>
      </trkpt>
      <trkpt lat="51.962010" lon="8.886107">
        <ele>154.867591</ele>
        <time>2025-05-10T19:21:42.982Z</time>
      </trkpt>
      <trkpt lat="51.962438" lon="8.885939">
        <ele>153.755638</ele>
        <time>2025-05-10T19:21:52.848Z</time>
      </trkpt>
      <trkpt lat="51.962523" lon="8.885902">
        <ele>153.533409</ele>
        <time>2025-05-10T19:21:55.167Z</time>
      </trkpt>
      <trkpt lat="51.962692" lon="8.885814">
        <ele>153.779689</ele>
        <time>2025-05-10T19:22:00.141Z</time>
      </trkpt>
      <trkpt lat="51.963086" lon="8.885557">
        <ele>154.882183</ele>
        <time>2025-05-10T19:22:14.098Z</time>
      </trkpt>
      <trkpt lat="51.963217" lon="8.885372">
        <ele>155.333044</ele>
        <time>2025-05-10T19:22:20.247Z</time>
      </trkpt>
      <trkpt lat="51.963249" lon="8.885176">
        <ele>155.657423</ele>
        <time>2025-05-10T19:22:25.041Z</time>
      </trkpt>
      <trkpt lat="51.963190" lon="8.884747">
        <ele>156.360619</ele>
        <time>2025-05-10T19:22:36.332Z</time>
      </trkpt>
      <trkpt lat="51.963220" lon="8.884644">
        <ele>156.542879</ele>
        <time>2025-05-10T19:22:39.394Z</time>
      </trkpt>
      <trkpt lat="51.963285" lon="8.884602">
        <ele>156.724526</ele>
        <time>2025-05-10T19:22:42.676Z</time>
      </trkpt>
      <trkpt lat="51.963343" lon="8.884636">
        <ele>156.884637</ele>
        <time>2025-05-10T19:22:45.601Z</time>
      </trkpt>
      <trkpt lat="51.963369" lon="8.884688">
        <ele>156.991769</ele>
        <time>2025-05-10T19:22:47.591Z</time>
      </trkpt>
      <trkpt lat="51.963418" lon="8.885013">
        <ele>157.527036</ele>
        <time>2025-05-10T19:22:57.779Z</time>
      </trkpt>
      <trkpt lat="51.963533" lon="8.885819">
        <ele>159.359269</ele>
        <time>2025-05-10T19:23:23.648Z</time>
      </trkpt>
      <trkpt lat="51.963561" lon="8.885874">
        <ele>159.550506</ele>
        <time>2025-05-10T19:23:25.846Z</time>
      </trkpt>
      <trkpt lat="51.963645" lon="8.885911">
        <ele>159.929146</ele>
        <time>2025-05-10T19:23:30.225Z</time>
      </trkpt>
      <trkpt lat="51.963687" lon="8.885887">
        <ele>160.122851</ele>
        <time>2025-05-10T19:23:32.392Z</time>
      </trkpt>
      <trkpt lat="51.963737" lon="8.885773">
        <ele>160.497933</ele>
        <time>2025-05-10T19:23:36.739Z</time>
      </trkpt>
      <trkpt lat="51.963705" lon="8.885260">
        <ele>161.880034</ele>
        <time>2025-05-10T19:23:52.196Z</time>
      </trkpt>
      <trkpt lat="51.963745" lon="8.885085">
        <ele>162.380349</ele>
        <time>2025-05-10T19:23:57.809Z</time>
      </trkpt>
      <trkpt lat="51.963786" lon="8.885020">
        <ele>162.629685</ele>
        <time>2025-05-10T19:24:00.703Z</time>
      </trkpt>
      <trkpt lat="51.965757" lon="8.884005">
        <ele>170.270041</ele>
        <time>2025-05-10T19:25:34.122Z</time>
      </trkpt>
      <trkpt lat="51.966047" lon="8.883822">
        <ele>171.301962</ele>
        <time>2025-05-10T19:25:45.903Z</time>
      </trkpt>
      <trkpt lat="51.966209" lon="8.883720">
        <ele>171.878246</ele>
        <time>2025-05-10T19:25:52.347Z</time>
      </trkpt>
      <trkpt lat="51.966348" lon="8.883654">
        <ele>172.035034</ele>
        <time>2025-05-10T19:25:57.597Z</time>
      </trkpt>
      <trkpt lat="51.966814" lon="8.883592">
        <ele>172.521173</ele>
        <time>2025-05-10T19:26:13.690Z</time>
      </trkpt>
      <trkpt lat="51.967053" lon="8.883506">
        <ele>172.775702</ele>
        <time>2025-05-10T19:26:21.424Z</time>
      </trkpt>
      <trkpt lat="51.967301" lon="8.883331">
        <ele>173.056869</ele>
        <time>2025-05-10T19:26:29.644Z</time>
      </trkpt>
      <trkpt lat="51.967407" lon="8.883110">
        <ele>173.236281</ele>
        <time>2025-05-10T19:26:34.744Z</time>
      </trkpt>
      <trkpt lat="51.967423" lon="8.882941">
        <ele>173.345811</ele>
        <time>2025-05-10T19:26:37.828Z</time>
      </trkpt>
      <trkpt lat="51.967408" lon="8.882215">
        <ele>173.748361</ele>
        <time>2025-05-10T19:26:50.579Z</time>
      </trkpt>
      <trkpt lat="51.967241" lon="8.879363">
        <ele>173.417183</ele>
        <time>2025-05-10T19:27:36.180Z</time>
      </trkpt>
      <trkpt lat="51.967233" lon="8.879256">
        <ele>173.321793</ele>
        <time>2025-05-10T19:27:37.809Z</time>
      </trkpt>
      <trkpt lat="51.967306" lon="8.878470">
        <ele>172.618327</ele>
        <time>2025-05-10T19:27:49.553Z</time>
      </trkpt>
      <trkpt lat="51.967569" lon="8.875696">
        <ele>169.285724</ele>
        <time>2025-05-10T19:28:26.424Z</time>
      </trkpt>
      <trkpt lat="51.967694" lon="8.874120">
        <ele>166.233523</ele>
        <time>2025-05-10T19:28:45.227Z</time>
      </trkpt>
      <trkpt lat="51.967835" lon="8.872335">
        <ele>162.763321</ele>
        <time>2025-05-10T19:29:06.240Z</time>
      </trkpt>
      <trkpt lat="51.967852" lon="8.871698">
        <ele>161.531948</ele>
        <time>2025-05-10T19:29:13.905Z</time>
      </trkpt>
      <trkpt lat="51.967786" lon="8.871428">
        <ele>160.970962</ele>
        <time>2025-05-10T19:29:17.441Z</time>
      </trkpt>
      <trkpt lat="51.967547" lon="8.870806">
        <ele>159.598899</ele>
        <time>2025-05-10T19:29:26.615Z</time>
      </trkpt>
      <trkpt lat="51.967311" lon="8.870207">
        <ele>159.248314</ele>
        <time>2025-05-10T19:29:36.377Z</time>
      </trkpt>
      <trkpt lat="51.967176" lon="8.869769">
        <ele>159.006825</ele>
        <time>2025-05-10T19:29:43.585Z</time>
      </trkpt>
      <trkpt lat="51.967160" lon="8.869692">
        <ele>158.966756</ele>
        <time>2025-05-10T19:29:44.804Z</time>
      </trkpt>
      <trkpt lat="51.967048" lon="8.868588">
        <ele>158.415057</ele>
        <time>2025-05-10T19:30:02.977Z</time>
      </trkpt>
      <trkpt lat="51.966901" lon="8.867424">
        <ele>157.278800</ele>
        <time>2025-05-10T19:30:21.954Z</time>
      </trkpt>
      <trkpt lat="51.966690" lon="8.866653">
        <ele>156.199604</ele>
        <time>2025-05-10T19:30:33.342Z</time>
      </trkpt>
      <trkpt lat="51.966571" lon="8.866118">
        <ele>155.471987</ele>
        <time>2025-05-10T19:30:40.425Z</time>
      </trkpt>
      <trkpt lat="51.966319" lon="8.864841">
        <ele>152.994988</ele>
        <time>2025-05-10T19:30:56.064Z</time>
      </trkpt>
      <trkpt lat="51.966319" lon="8.864662">
        <ele>152.510747</ele>
        <time>2025-05-10T19:30:58.084Z</time>
      </trkpt>
      <trkpt lat="51.966520" lon="8.863809">
        <ele>150.040161</ele>
        <time>2025-05-10T19:31:08.399Z</time>
      </trkpt>
      <trkpt lat="51.966697" lon="8.863166">
        <ele>148.134975</ele>
        <time>2025-05-10T19:31:16.352Z</time>
      </trkpt>
      <trkpt lat="51.966967" lon="8.862585">
        <ele>146.279566</ele>
        <time>2025-05-10T19:31:24.602Z</time>
      </trkpt>
      <trkpt lat="51.967242" lon="8.861434">
        <ele>143.945496</ele>
        <time>2025-05-10T19:31:38.848Z</time>
      </trkpt>
      <trkpt lat="51.967462" lon="8.860527">
        <ele>142.102552</ele>
        <time>2025-05-10T19:31:50.880Z</time>
      </trkpt>
      <trkpt lat="51.967530" lon="8.859899">
        <ele>141.015765</ele>
        <time>2025-05-10T19:31:59.412Z</time>
      </trkpt>
      <trkpt lat="51.967571" lon="8.859259">
        <ele>140.945842</ele>
        <time>2025-05-10T19:32:08.834Z</time>
      </trkpt>
      <trkpt lat="51.968817" lon="8.858309">
        <ele>140.699562</ele>
        <time>2025-05-10T19:32:48.182Z</time>
      </trkpt>
      <trkpt lat="51.969027" lon="8.858184">
        <ele>140.609938</ele>
        <time>2025-05-10T19:32:54.215Z</time>
      </trkpt>
      <trkpt lat="51.969475" lon="8.858039">
        <ele>140.426895</ele>
        <time>2025-05-10T19:33:05.811Z</time>
      </trkpt>
      <trkpt lat="51.969515" lon="8.858027">
        <ele>140.410596</ele>
        <time>2025-05-10T19:33:06.807Z</time>
      </trkpt>
      <trkpt lat="51.969988" lon="8.857986">
        <ele>140.220800</ele>
        <time>2025-05-10T19:33:18.383Z</time>
      </trkpt>
      <trkpt lat="51.970386" lon="8.857879">
        <ele>140.059153</ele>
        <time>2025-05-10T19:33:28.152Z</time>
      </trkpt>
      <trkpt lat="51.970584" lon="8.857784">
        <ele>139.954028</ele>
        <time>2025-05-10T19:33:33.137Z</time>
      </trkpt>
      <trkpt lat="51.971351" lon="8.857248">
        <ele>138.752099</ele>
        <time>2025-05-10T19:33:52.673Z</time>
      </trkpt>
      <trkpt lat="51.971523" lon="8.857101">
        <ele>138.472317</ele>
        <time>2025-05-10T19:33:57.039Z</time>
      </trkpt>
      <trkpt lat="51.971936" lon="8.856537">
        <ele>137.695489</ele>
        <time>2025-05-10T19:34:08.590Z</time>
      </trkpt>
      <trkpt lat="51.972351" lon="8.856131">
        <ele>136.842090</ele>
        <time>2025-05-10T19:34:18.415Z</time>
      </trkpt>
      <trkpt lat="51.972545" lon="8.855862">
        <ele>136.330988</ele>
        <time>2025-05-10T19:34:23.552Z</time>
      </trkpt>
      <trkpt lat="51.972887" lon="8.855209">
        <ele>135.273289</ele>
        <time>2025-05-10T19:34:34.549Z</time>
      </trkpt>
      <trkpt lat="51.973107" lon="8.854854">
        <ele>134.651888</ele>
        <time>2025-05-10T19:34:41.410Z</time>
      </trkpt>
      <trkpt lat="51.973348" lon="8.854600">
        <ele>134.076286</ele>
        <time>2025-05-10T19:34:47.724Z</time>
      </trkpt>
      <trkpt lat="51.973957" lon="8.854063">
        <ele>132.616060</ele>
        <time>2025-05-10T19:35:02.705Z</time>
      </trkpt>
      <trkpt lat="51.975271" lon="8.852417">
        <ele>130.041334</ele>
        <time>2025-05-10T19:35:36.610Z</time>
      </trkpt>
      <trkpt lat="51.975593" lon="8.852243">
        <ele>130.111758</ele>
        <time>2025-05-10T19:35:45.112Z</time>
      </trkpt>
      <trkpt lat="51.976418" lon="8.852011">
        <ele>130.285507</ele>
        <time>2025-05-10T19:36:14.359Z</time>
      </trkpt>
      <trkpt lat="51.977539" lon="8.851668">
        <ele>131.276794</ele>
        <time>2025-05-10T19:36:57.721Z</time>
      </trkpt>
      <trkpt lat="51.978616" lon="8.850553">
        <ele>132.291250</ele>
        <time>2025-05-10T19:37:32.776Z</time>
      </trkpt>
      <trkpt lat="51.978641" lon="8.850538">
        <ele>132.299836</ele>
        <time>2025-05-10T19:37:33.471Z</time>
      </trkpt>
      <trkpt lat="51.978733" lon="8.850485">
        <ele>132.331284</ele>
        <time>2025-05-10T19:37:36.099Z</time>
      </trkpt>
      <trkpt lat="51.979544" lon="8.850231">
        <ele>132.597360</ele>
        <time>2025-05-10T19:38:01.174Z</time>
      </trkpt>
      <trkpt lat="51.979752" lon="8.850065">
        <ele>132.672025</ele>
        <time>2025-05-10T19:38:08.533Z</time>
      </trkpt>
      <trkpt lat="51.979958" lon="8.849901">
        <ele>132.726013</ele>
        <time>2025-05-10T19:38:15.862Z</time>
      </trkpt>
      <trkpt lat="51.980049" lon="8.849828">
        <ele>132.670954</ele>
        <time>2025-05-10T19:38:18.906Z</time>
      </trkpt>
      <trkpt lat="51.980154" lon="8.849844">
        <ele>132.613747</ele>
        <time>2025-05-10T19:38:21.990Z</time>
      </trkpt>
      <trkpt lat="51.980251" lon="8.848634">
        <ele>132.206064</ele>
        <time>2025-05-10T19:38:40.704Z</time>
      </trkpt>
      <trkpt lat="51.980310" lon="8.848463">
        <ele>132.140578</ele>
        <time>2025-05-10T19:38:43.562Z</time>
      </trkpt>
      <trkpt lat="51.980440" lon="8.848138">
        <ele>132.011104</ele>
        <time>2025-05-10T19:38:49.025Z</time>
      </trkpt>
      <trkpt lat="51.980637" lon="8.848167">
        <ele>131.903804</ele>
        <time>2025-05-10T19:38:53.664Z</time>
      </trkpt>
      <trkpt lat="51.980741" lon="8.848139">
        <ele>131.846619</ele>
        <time>2025-05-10T19:38:56.033Z</time>
      </trkpt>
      <trkpt lat="51.980758" lon="8.848288">
        <ele>131.795990</ele>
        <time>2025-05-10T19:38:58.202Z</time>
      </trkpt>
      <trkpt lat="51.980781" lon="8.848456">
        <ele>131.692312</ele>
        <time>2025-05-10T19:39:00.625Z</time>
      </trkpt>
      <trkpt lat="51.981075" lon="8.848529">
        <ele>131.225103</ele>
        <time>2025-05-10T19:39:07.521Z</time>
      </trkpt>
      <trkpt lat="51.981316" lon="8.848589">
        <ele>130.842095</ele>
        <time>2025-05-10T19:39:13.073Z</time>
      </trkpt>
      <trkpt lat="51.981538" lon="8.848676">
        <ele>130.483344</ele>
        <time>2025-05-10T19:39:18.329Z</time>
      </trkpt>
      <trkpt lat="51.981894" lon="8.848775">
        <ele>129.915966</ele>
        <time>2025-05-10T19:39:26.932Z</time>
      </trkpt>
      <trkpt lat="51.982081" lon="8.847677">
        <ele>128.826871</ele>
        <time>2025-05-10T19:39:42.411Z</time>
      </trkpt>
      <trkpt lat="51.982331" lon="8.847786">
        <ele>128.463354</ele>
        <time>2025-05-10T19:39:48.049Z</time>
      </trkpt>
      <trkpt lat="51.982554" lon="8.847883">
        <ele>128.139148</ele>
        <time>2025-05-10T19:39:53.207Z</time>
      </trkpt>
      <trkpt lat="51.982617" lon="8.847910">
        <ele>128.047646</ele>
        <time>2025-05-10T19:39:54.680Z</time>
      </trkpt>
      <trkpt lat="51.982656" lon="8.847867">
        <ele>127.981444</ele>
        <time>2025-05-10T19:39:55.768Z</time>
      </trkpt>
      <trkpt lat="51.982710" lon="8.847582">
        <ele>127.723541</ele>
        <time>2025-05-10T19:40:00.088Z</time>
      </trkpt>
      <trkpt lat="51.982803" lon="8.847519">
        <ele>127.582029</ele>
        <time>2025-05-10T19:40:02.471Z</time>
      </trkpt>
      <trkpt lat="51.983003" lon="8.847598">
        <ele>127.292974</ele>
        <time>2025-05-10T19:40:07.447Z</time>
      </trkpt>
      <trkpt lat="51.983732" lon="8.847849">
        <ele>126.257991</ele>
        <time>2025-05-10T19:40:25.472Z</time>
      </trkpt>
      <trkpt lat="51.983725" lon="8.846855">
        <ele>125.458274</ele>
        <time>2025-05-10T19:40:39.513Z</time>
      </trkpt>
      <trkpt lat="51.983724" lon="8.846723">
        <ele>125.352073</ele>
        <time>2025-05-10T19:40:41.322Z</time>
      </trkpt>
      <trkpt lat="51.983721" lon="8.846332">
        <ele>125.037492</ele>
        <time>2025-05-10T19:40:46.671Z</time>
      </trkpt>
      <trkpt lat="51.983717" lon="8.845883">
        <ele>124.676237</ele>
        <time>2025-05-10T19:40:52.737Z</time>
      </trkpt>
      <trkpt lat="51.983638" lon="8.845190">
        <ele>124.109253</ele>
        <time>2025-05-10T19:41:02.287Z</time>
      </trkpt>
      <trkpt lat="51.984332" lon="8.844996">
        <ele>123.197544</ele>
        <time>2025-05-10T19:41:17.869Z</time>
      </trkpt>
      <trkpt lat="51.984332" lon="8.844882">
        <ele>123.106690</ele>
        <time>2025-05-10T19:41:19.461Z</time>
      </trkpt>
      <trkpt lat="51.984344" lon="8.844230">
        <ele>122.586839</ele>
        <time>2025-05-10T19:41:28.686Z</time>
      </trkpt>
      <trkpt lat="51.985501" lon="8.844157">
        <ele>121.048911</ele>
        <time>2025-05-10T19:41:54.721Z</time>
      </trkpt>
      <trkpt lat="51.985720" lon="8.844098">
        <ele>120.744034</ele>
        <time>2025-05-10T19:41:59.632Z</time>
      </trkpt>
      <trkpt lat="51.985965" lon="8.843946">
        <ele>120.383837</ele>
        <time>2025-05-10T19:42:05.348Z</time>
      </trkpt>
      <trkpt lat="51.987001" lon="8.843303">
        <ele>119.223634</ele>
        <time>2025-05-10T19:42:29.894Z</time>
      </trkpt>
      <trkpt lat="51.988254" lon="8.842513">
        <ele>119.037271</ele>
        <time>2025-05-10T19:43:05.002Z</time>
      </trkpt>
      <trkpt lat="51.988970" lon="8.845294">
        <ele>120.919779</ele>
        <time>2025-05-10T19:44:06.184Z</time>
      </trkpt>
      <trkpt lat="51.989624" lon="8.847836">
        <ele>122.448111</ele>
        <time>2025-05-10T19:44:59.024Z</time>
      </trkpt>
      <trkpt lat="51.989711" lon="8.847795">
        <ele>122.528419</ele>
        <time>2025-05-10T19:45:01.667Z</time>
      </trkpt>
      <trkpt lat="51.989994" lon="8.848035">
        <ele>122.732207</ele>
        <time>2025-05-10T19:45:11.020Z</time>
      </trkpt>
      <trkpt lat="51.993484" lon="8.850999">
        <ele>124.540154</ele>
        <time>2025-05-10T19:47:04.711Z</time>
      </trkpt>
      <trkpt lat="51.995720" lon="8.850412">
        <ele>124.671009</ele>
        <time>2025-05-10T19:48:08.652Z</time>
      </trkpt>
      <trkpt lat="51.996304" lon="8.850258">
        <ele>124.486248</ele>
        <time>2025-05-10T19:48:23.013Z</time>
      </trkpt>
      <trkpt lat="51.996337" lon="8.850245">
        <ele>124.475644</ele>
        <time>2025-05-10T19:48:23.796Z</time>
      </trkpt>
      <trkpt lat="51.998788" lon="8.849126">
        <ele>120.728975</ele>
        <time>2025-05-10T19:49:18.342Z</time>
      </trkpt>
      <trkpt lat="51.999036" lon="8.849023">
        <ele>120.441493</ele>
        <time>2025-05-10T19:49:24.313Z</time>
      </trkpt>
      <trkpt lat="51.999693" lon="8.848959">
        <ele>119.702313</ele>
        <time>2025-05-10T19:49:40.169Z</time>
      </trkpt>
      <trkpt lat="51.999905" lon="8.848975">
        <ele>119.463966</ele>
        <time>2025-05-10T19:49:45.484Z</time>
      </trkpt>
      <trkpt lat="52.001071" lon="8.849411">
        <ele>118.259177</ele>
        <time>2025-05-10T19:50:13.433Z</time>
      </trkpt>
      <trkpt lat="52.001369" lon="8.849476">
        <ele>117.959110</ele>
        <time>2025-05-10T19:50:20.137Z</time>
      </trkpt>
      <trkpt lat="52.001643" lon="8.849444">
        <ele>117.684958</ele>
        <time>2025-05-10T19:50:26.330Z</time>
      </trkpt>
      <trkpt lat="52.001939" lon="8.849281">
        <ele>117.311119</ele>
        <time>2025-05-10T19:50:33.486Z</time>
      </trkpt>
      <trkpt lat="52.002920" lon="8.848512">
        <ele>115.887090</ele>
        <time>2025-05-10T19:50:58.558Z</time>
      </trkpt>
      <trkpt lat="52.003462" lon="8.848176">
        <ele>115.039499</ele>
        <time>2025-05-10T19:51:11.272Z</time>
      </trkpt>
      <trkpt lat="52.003898" lon="8.848055">
        <ele>113.905086</ele>
        <time>2025-05-10T19:51:20.402Z</time>
      </trkpt>
      <trkpt lat="52.005031" lon="8.847588">
        <ele>110.907191</ele>
        <time>2025-05-10T19:51:43.606Z</time>
      </trkpt>
      <trkpt lat="52.006473" lon="8.847110">
        <ele>107.407739</ele>
        <time>2025-05-10T19:52:13.690Z</time>
      </trkpt>
      <trkpt lat="52.007484" lon="8.846891">
        <ele>105.399294</ele>
        <time>2025-05-10T19:52:35.189Z</time>
      </trkpt>
      <trkpt lat="52.007906" lon="8.846858">
        <ele>104.694916</ele>
        <time>2025-05-10T19:52:44.274Z</time>
      </trkpt>
      <trkpt lat="52.009148" lon="8.846906">
        <ele>102.771966</ele>
        <time>2025-05-10T19:53:12.019Z</time>
      </trkpt>
      <trkpt lat="52.009213" lon="8.846873">
        <ele>102.681243</ele>
        <time>2025-05-10T19:53:13.565Z</time>
      </trkpt>
      <trkpt lat="52.009282" lon="8.846857">
        <ele>102.588390</ele>
        <time>2025-05-10T19:53:15.142Z</time>
      </trkpt>
      <trkpt lat="52.009686" lon="8.846767">
        <ele>102.045143</ele>
        <time>2025-05-10T19:53:24.257Z</time>
      </trkpt>
      <trkpt lat="52.009790" lon="8.846740">
        <ele>101.904836</ele>
        <time>2025-05-10T19:53:26.595Z</time>
      </trkpt>
      <trkpt lat="52.010212" lon="8.846583">
        <ele>101.328094</ele>
        <time>2025-05-10T19:53:36.283Z</time>
      </trkpt>
      <trkpt lat="52.010840" lon="8.846349">
        <ele>100.602085</ele>
        <time>2025-05-10T19:53:50.677Z</time>
      </trkpt>
      <trkpt lat="52.011415" lon="8.846137">
        <ele>100.026234</ele>
        <time>2025-05-10T19:54:04.033Z</time>
      </trkpt>
      <trkpt lat="52.011545" lon="8.846065">
        <ele>99.892095</ele>
        <time>2025-05-10T19:54:07.252Z</time>
      </trkpt>
      <trkpt lat="52.011794" lon="8.845926">
        <ele>99.634955</ele>
        <time>2025-05-10T19:54:13.551Z</time>
      </trkpt>
      <trkpt lat="52.011842" lon="8.845931">
        <ele>99.587980</ele>
        <time>2025-05-10T19:54:14.716Z</time>
      </trkpt>
      <trkpt lat="52.011844" lon="8.845811">
        <ele>99.515819</ele>
        <time>2025-05-10T19:54:16.539Z</time>
      </trkpt>
      <trkpt lat="52.011896" lon="8.845805">
        <ele>99.464905</ele>
        <time>2025-05-10T19:54:17.874Z</time>
      </trkpt>
      <trkpt lat="52.012242" lon="8.845406">
        <ele>99.102014</ele>
        <time>2025-05-10T19:54:28.776Z</time>
      </trkpt>
      <trkpt lat="52.012642" lon="8.846333">
        <ele>98.642682</ele>
        <time>2025-05-10T19:54:46.712Z</time>
      </trkpt>
      <trkpt lat="52.012700" lon="8.846583">
        <ele>98.534283</ele>
        <time>2025-05-10T19:54:50.924Z</time>
      </trkpt>
      <trkpt lat="52.012722" lon="8.846926">
        <ele>98.394365</ele>
        <time>2025-05-10T19:54:56.166Z</time>
      </trkpt>
      <trkpt lat="52.012752" lon="8.847402">
        <ele>98.200230</ele>
        <time>2025-05-10T19:55:03.383Z</time>
      </trkpt>
      <trkpt lat="52.012890" lon="8.848220">
        <ele>97.892721</ele>
        <time>2025-05-10T19:55:16.177Z</time>
      </trkpt>
      <trkpt lat="52.012953" lon="8.848602">
        <ele>97.767410</ele>
        <time>2025-05-10T19:55:22.216Z</time>
      </trkpt>
      <trkpt lat="52.013151" lon="8.849393">
        <ele>97.496838</ele>
        <time>2025-05-10T19:55:35.844Z</time>
      </trkpt>
      <trkpt lat="52.013173" lon="8.849485">
        <ele>97.465564</ele>
        <time>2025-05-10T19:55:37.365Z</time>
      </trkpt>
      <trkpt lat="52.013301" lon="8.849903">
        <ele>97.317630</ele>
        <time>2025-05-10T19:55:44.749Z</time>
      </trkpt>
      <trkpt lat="52.013468" lon="8.850301">
        <ele>97.165002</ele>
        <time>2025-05-10T19:55:52.490Z</time>
      </trkpt>
      <trkpt lat="52.013614" lon="8.850573">
        <ele>97.087431</ele>
        <time>2025-05-10T19:55:58.469Z</time>
      </trkpt>
      <trkpt lat="52.014120" lon="8.851480">
        <ele>97.005276</ele>
        <time>2025-05-10T19:56:20.058Z</time>
      </trkpt>
      <trkpt lat="52.014234" lon="8.851863">
        <ele>96.976725</ele>
        <time>2025-05-10T19:56:27.424Z</time>
      </trkpt>
      <trkpt lat="52.014257" lon="8.851808">
        <ele>96.972262</ele>
        <time>2025-05-10T19:56:28.540Z</time>
      </trkpt>
      <trkpt lat="52.014604" lon="8.851655">
        <ele>96.933057</ele>
        <time>2025-05-10T19:56:37.932Z</time>
      </trkpt>
      <trkpt lat="52.014993" lon="8.851556">
        <ele>96.797689</ele>
        <time>2025-05-10T19:56:47.807Z</time>
      </trkpt>
      <trkpt lat="52.015242" lon="8.851443">
        <ele>96.534068</ele>
        <time>2025-05-10T19:56:54.183Z</time>
      </trkpt>
      <trkpt lat="52.015326" lon="8.851405">
        <ele>96.445156</ele>
        <time>2025-05-10T19:56:56.344Z</time>
      </trkpt>
      <trkpt lat="52.015549" lon="8.851335">
        <ele>96.213559</ele>
        <time>2025-05-10T19:57:01.883Z</time>
      </trkpt>
      <trkpt lat="52.016073" lon="8.851276">
        <ele>95.677958</ele>
        <time>2025-05-10T19:57:14.041Z</time>
      </trkpt>
      <trkpt lat="52.016830" lon="8.851272">
        <ele>94.907497</ele>
        <time>2025-05-10T19:57:30.453Z</time>
      </trkpt>
      <trkpt lat="52.016948" lon="8.851505">
        <ele>94.719841</ele>
        <time>2025-05-10T19:57:34.417Z</time>
      </trkpt>
      <trkpt lat="52.017086" lon="8.851965">
        <ele>94.401591</ele>
        <time>2025-05-10T19:57:41.203Z</time>
      </trkpt>
      <trkpt lat="52.017178" lon="8.852191">
        <ele>94.233079</ele>
        <time>2025-05-10T19:57:44.800Z</time>
      </trkpt>
      <trkpt lat="52.017270" lon="8.852352">
        <ele>94.096449</ele>
        <time>2025-05-10T19:57:47.811Z</time>
      </trkpt>
      <trkpt lat="52.017738" lon="8.852831">
        <ele>93.537534</ele>
        <time>2025-05-10T19:58:00.970Z</time>
      </trkpt>
      <trkpt lat="52.017888" lon="8.853010">
        <ele>93.349474</ele>
        <time>2025-05-10T19:58:05.665Z</time>
      </trkpt>
      <trkpt lat="52.018005" lon="8.853211">
        <ele>93.312619</ele>
        <time>2025-05-10T19:58:10.140Z</time>
      </trkpt>
      <trkpt lat="52.018160" lon="8.853869">
        <ele>93.695351</ele>
        <time>2025-05-10T19:58:22.868Z</time>
      </trkpt>
      <trkpt lat="52.018172" lon="8.853938">
        <ele>93.734301</ele>
        <time>2025-05-10T19:58:24.261Z</time>
      </trkpt>
      <trkpt lat="52.018229" lon="8.854796">
        <ele>94.203095</ele>
        <time>2025-05-10T19:58:42.101Z</time>
      </trkpt>
      <trkpt lat="52.018224" lon="8.855332">
        <ele>94.494296</ele>
        <time>2025-05-10T19:58:53.676Z</time>
      </trkpt>
      <trkpt lat="52.018271" lon="8.855680">
        <ele>94.687836</ele>
        <time>2025-05-10T19:59:00.832Z</time>
      </trkpt>
      <trkpt lat="52.018453" lon="8.856265">
        <ele>94.767940</ele>
        <time>2025-05-10T19:59:13.065Z</time>
      </trkpt>
      <trkpt lat="52.018710" lon="8.856889">
        <ele>94.631169</ele>
        <time>2025-05-10T19:59:25.971Z</time>
      </trkpt>
      <trkpt lat="52.018835" lon="8.857052">
        <ele>94.583729</ele>
        <time>2025-05-10T19:59:30.115Z</time>
      </trkpt>
      <trkpt lat="52.018913" lon="8.857078">
        <ele>94.560161</ele>
        <time>2025-05-10T19:59:32.096Z</time>
      </trkpt>
      <trkpt lat="52.019977" lon="8.857104">
        <ele>93.994903</ele>
        <time>2025-05-10T19:59:56.671Z</time>
      </trkpt>
      <trkpt lat="52.021382" lon="8.857139">
        <ele>91.834395</ele>
        <time>2025-05-10T20:00:27.465Z</time>
      </trkpt>
      <trkpt lat="52.021522" lon="8.857245">
        <ele>91.596921</ele>
        <time>2025-05-10T20:00:30.733Z</time>
      </trkpt>
      <trkpt lat="52.021866" lon="8.857691">
        <ele>90.972835</ele>
        <time>2025-05-10T20:00:39.954Z</time>
      </trkpt>
      <trkpt lat="52.022165" lon="8.857761">
        <ele>90.547781</ele>
        <time>2025-05-10T20:00:46.502Z</time>
      </trkpt>
      <trkpt lat="52.022869" lon="8.857943">
        <ele>89.544756</ele>
        <time>2025-05-10T20:01:02.337Z</time>
      </trkpt>
      <trkpt lat="52.023118" lon="8.857834">
        <ele>89.181910</ele>
        <time>2025-05-10T20:01:12.627Z</time>
      </trkpt>
      <trkpt lat="52.023295" lon="8.857775">
        <ele>89.028339</ele>
        <time>2025-05-10T20:01:16.855Z</time>
      </trkpt>
      <trkpt lat="52.023923" lon="8.857686">
        <ele>89.245181</ele>
        <time>2025-05-10T20:01:32.870Z</time>
      </trkpt>
      <trkpt lat="52.024716" lon="8.857643">
        <ele>89.518113</ele>
        <time>2025-05-10T20:01:56.126Z</time>
      </trkpt>
      <trkpt lat="52.024728" lon="8.857641">
        <ele>89.522262</ele>
        <time>2025-05-10T20:01:56.529Z</time>
      </trkpt>
      <trkpt lat="52.025111" lon="8.857572">
        <ele>89.755269</ele>
        <time>2025-05-10T20:02:09.327Z</time>
      </trkpt>
      <trkpt lat="52.025242" lon="8.857558">
        <ele>89.965116</ele>
        <time>2025-05-10T20:02:13.930Z</time>
      </trkpt>
      <trkpt lat="52.025608" lon="8.857512">
        <ele>90.551889</ele>
        <time>2025-05-10T20:02:27.029Z</time>
      </trkpt>
      <trkpt lat="52.025958" lon="8.857468">
        <ele>91.113012</ele>
        <time>2025-05-10T20:02:39.855Z</time>
      </trkpt>
      <trkpt lat="52.026086" lon="8.857528">
        <ele>91.325952</ele>
        <time>2025-05-10T20:02:44.727Z</time>
      </trkpt>
      <trkpt lat="52.026170" lon="8.857847">
        <ele>91.667218</ele>
        <time>2025-05-10T20:02:52.330Z</time>
      </trkpt>
      <trkpt lat="52.026263" lon="8.859241">
        <ele>92.634374</ele>
        <time>2025-05-10T20:03:21.245Z</time>
      </trkpt>
      <trkpt lat="52.026291" lon="8.859989">
        <ele>92.813340</ele>
        <time>2025-05-10T20:03:34.291Z</time>
      </trkpt>
      <trkpt lat="52.026258" lon="8.862304">
        <ele>93.298978</ele>
        <time>2025-05-10T20:04:11.998Z</time>
      </trkpt>
      <trkpt lat="52.026306" lon="8.862981">
        <ele>93.395656</ele>
        <time>2025-05-10T20:04:23.527Z</time>
      </trkpt>
      <trkpt lat="52.026519" lon="8.864529">
        <ele>93.602311</ele>
        <time>2025-05-10T20:04:51.866Z</time>
      </trkpt>
      <trkpt lat="52.026601" lon="8.865171">
        <ele>93.389762</ele>
        <time>2025-05-10T20:05:03.181Z</time>
      </trkpt>
      <trkpt lat="52.026592" lon="8.865806">
        <ele>93.183865</ele>
        <time>2025-05-10T20:05:13.315Z</time>
      </trkpt>
      <trkpt lat="52.026582" lon="8.866146">
        <ele>93.073524</ele>
        <time>2025-05-10T20:05:18.484Z</time>
      </trkpt>
      <trkpt lat="52.025615" lon="8.866152">
        <ele>92.398169</ele>
        <time>2025-05-10T20:05:41.400Z</time>
      </trkpt>
      <trkpt lat="52.025595" lon="8.866154">
        <ele>92.370679</ele>
        <time>2025-05-10T20:05:41.844Z</time>
      </trkpt>
      <trkpt lat="52.024903" lon="8.866225">
        <ele>91.419460</ele>
        <time>2025-05-10T20:05:57.464Z</time>
      </trkpt>
      <trkpt lat="52.024730" lon="8.866282">
        <ele>91.177299</ele>
        <time>2025-05-10T20:06:01.497Z</time>
      </trkpt>
      <trkpt lat="52.024669" lon="8.866323">
        <ele>91.086741</ele>
        <time>2025-05-10T20:06:03.012Z</time>
      </trkpt>
      <trkpt lat="52.024463" lon="8.866481">
        <ele>90.774245</ele>
        <time>2025-05-10T20:06:08.311Z</time>
      </trkpt>
      <trkpt lat="52.024308" lon="8.866666">
        <ele>90.510420</ele>
        <time>2025-05-10T20:06:12.874Z</time>
      </trkpt>
      <trkpt lat="52.024171" lon="8.866899">
        <ele>90.238375</ele>
        <time>2025-05-10T20:06:17.679Z</time>
      </trkpt>
      <trkpt lat="52.024063" lon="8.867157">
        <ele>90.181385</ele>
        <time>2025-05-10T20:06:22.432Z</time>
      </trkpt>
      <trkpt lat="52.023992" lon="8.867400">
        <ele>90.162598</ele>
        <time>2025-05-10T20:06:26.647Z</time>
      </trkpt>
      <trkpt lat="52.023730" lon="8.868635">
        <ele>90.071360</ele>
        <time>2025-05-10T20:06:48.504Z</time>
      </trkpt>
      <trkpt lat="52.023648" lon="8.869033">
        <ele>90.042046</ele>
        <time>2025-05-10T20:06:56.043Z</time>
      </trkpt>
      <trkpt lat="52.023323" lon="8.871864">
        <ele>90.512497</ele>
        <time>2025-05-10T20:07:49.222Z</time>
      </trkpt>
      <trkpt lat="52.023258" lon="8.872499">
        <ele>90.662412</ele>
        <time>2025-05-10T20:08:00.642Z</time>
      </trkpt>
      <trkpt lat="52.023239" lon="8.872822">
        <ele>90.708130</ele>
        <time>2025-05-10T20:08:06.364Z</time>
      </trkpt>
      <trkpt lat="52.023209" lon="8.873318">
        <ele>90.767775</ele>
        <time>2025-05-10T20:08:15.090Z</time>
      </trkpt>
      <trkpt lat="52.023081" lon="8.876352">
        <ele>91.291492</ele>
        <time>2025-05-10T20:09:08.606Z</time>
      </trkpt>
      <trkpt lat="52.023073" lon="8.877880">
        <ele>91.751741</ele>
        <time>2025-05-10T20:09:36.980Z</time>
      </trkpt>
      <trkpt lat="52.023077" lon="8.878018">
        <ele>91.793353</ele>
        <time>2025-05-10T20:09:39.737Z</time>
      </trkpt>
      <trkpt lat="52.023162" lon="8.879956">
        <ele>92.774448</ele>
        <time>2025-05-10T20:10:18.293Z</time>
      </trkpt>
      <trkpt lat="52.023154" lon="8.880148">
        <ele>92.881050</ele>
        <time>2025-05-10T20:10:22.237Z</time>
      </trkpt>
      <trkpt lat="52.023060" lon="8.880483">
        <ele>93.085008</ele>
        <time>2025-05-10T20:10:29.791Z</time>
      </trkpt>
      <trkpt lat="52.023238" lon="8.880755">
        <ele>93.304964</ele>
        <time>2025-05-10T20:10:37.577Z</time>
      </trkpt>
      <trkpt lat="52.023259" lon="8.880832">
        <ele>93.351620</ele>
        <time>2025-05-10T20:10:39.158Z</time>
      </trkpt>
      <trkpt lat="52.023402" lon="8.881910">
        <ele>93.618328</ele>
        <time>2025-05-10T20:10:59.436Z</time>
      </trkpt>
      <trkpt lat="52.023489" lon="8.882497">
        <ele>93.689079</ele>
        <time>2025-05-10T20:11:09.779Z</time>
      </trkpt>
      <trkpt lat="52.023533" lon="8.882789">
        <ele>93.724306</ele>
        <time>2025-05-10T20:11:14.886Z</time>
      </trkpt>
      <trkpt lat="52.023871" lon="8.884728">
        <ele>93.853950</ele>
        <time>2025-05-10T20:11:46.794Z</time>
      </trkpt>
      <trkpt lat="52.023939" lon="8.885117">
        <ele>93.846447</ele>
        <time>2025-05-10T20:11:53.100Z</time>
      </trkpt>
      <trkpt lat="52.024056" lon="8.885836">
        <ele>93.832649</ele>
        <time>2025-05-10T20:12:05.301Z</time>
      </trkpt>
      <trkpt lat="52.024192" lon="8.886697">
        <ele>93.816158</ele>
        <time>2025-05-10T20:12:20.521Z</time>
      </trkpt>
      <trkpt lat="52.024234" lon="8.886966">
        <ele>93.838076</ele>
        <time>2025-05-10T20:12:25.207Z</time>
      </trkpt>
      <trkpt lat="52.024520" lon="8.888766">
        <ele>94.089184</ele>
        <time>2025-05-10T20:12:57.042Z</time>
      </trkpt>
      <trkpt lat="52.024538" lon="8.888872">
        <ele>94.104037</ele>
        <time>2025-05-10T20:12:58.872Z</time>
      </trkpt>
      <trkpt lat="52.024681" lon="8.889580">
        <ele>94.204688</ele>
        <time>2025-05-10T20:13:11.358Z</time>
      </trkpt>
      <trkpt lat="52.024748" lon="8.889883">
        <ele>94.298523</ele>
        <time>2025-05-10T20:13:16.810Z</time>
      </trkpt>
      <trkpt lat="52.024840" lon="8.890261">
        <ele>94.424181</ele>
        <time>2025-05-10T20:13:23.830Z</time>
      </trkpt>
      <trkpt lat="52.024890" lon="8.890431">
        <ele>94.482427</ele>
        <time>2025-05-10T20:13:27.109Z</time>
      </trkpt>
      <trkpt lat="52.024953" lon="8.890530">
        <ele>94.526453</ele>
        <time>2025-05-10T20:13:29.609Z</time>
      </trkpt>
      <trkpt lat="52.024920" lon="8.890585">
        <ele>94.550199</ele>
        <time>2025-05-10T20:13:30.946Z</time>
      </trkpt>
      <trkpt lat="52.024897" lon="8.890731">
        <ele>94.596787</ele>
        <time>2025-05-10T20:13:33.617Z</time>
      </trkpt>
      <trkpt lat="52.024953" lon="8.890897">
        <ele>94.655308</ele>
        <time>2025-05-10T20:13:36.942Z</time>
      </trkpt>
      <trkpt lat="52.025056" lon="8.890940">
        <ele>94.708733</ele>
        <time>2025-05-10T20:13:39.990Z</time>
      </trkpt>
      <trkpt lat="52.025034" lon="8.891098">
        <ele>94.758809</ele>
        <time>2025-05-10T20:13:42.882Z</time>
      </trkpt>
      <trkpt lat="52.024971" lon="8.891100">
        <ele>94.790465</ele>
        <time>2025-05-10T20:13:47.254Z</time>
      </trkpt>
      <trkpt lat="52.025211" lon="8.892622">
        <ele>95.423794</ele>
        <time>2025-05-10T20:14:54.437Z</time>
      </trkpt>
      <trkpt lat="52.025356" lon="8.893546">
        <ele>95.984835</ele>
        <time>2025-05-10T20:15:35.195Z</time>
      </trkpt>
      <trkpt lat="52.025386" lon="8.894201">
        <ele>96.371273</ele>
        <time>2025-05-10T20:16:03.286Z</time>
      </trkpt>
      <trkpt lat="52.025442" lon="8.894262">
        <ele>96.435734</ele>
        <time>2025-05-10T20:16:07.986Z</time>
      </trkpt>
      <trkpt lat="52.025444" lon="8.894354">
        <ele>96.489896</ele>
        <time>2025-05-10T20:16:09.767Z</time>
      </trkpt>
      <trkpt lat="52.024924" lon="8.894502">
        <ele>96.937761</ele>
        <time>2025-05-10T20:16:26.358Z</time>
      </trkpt>
      <trkpt lat="52.024850" lon="8.894608">
        <ele>96.998968</ele>
        <time>2025-05-10T20:16:29.393Z</time>
      </trkpt>
      <trkpt lat="52.024616" lon="8.894787">
        <ele>97.159446</ele>
        <time>2025-05-10T20:16:37.310Z</time>
      </trkpt>
      <trkpt lat="52.024277" lon="8.895227">
        <ele>97.428648</ele>
        <time>2025-05-10T20:16:50.506Z</time>
      </trkpt>
      <trkpt lat="52.024104" lon="8.898493">
        <ele>98.418930</ele>
        <time>2025-05-10T20:17:47.419Z</time>
      </trkpt>
      <trkpt lat="52.024189" lon="8.898959">
        <ele>98.538224</ele>
        <time>2025-05-10T20:17:56.230Z</time>
      </trkpt>
      <trkpt lat="52.024195" lon="8.899360">
        <ele>98.636673</ele>
        <time>2025-05-10T20:18:03.497Z</time>
      </trkpt>
      <trkpt lat="52.024100" lon="8.899368">
        <ele>98.668998</ele>
        <time>2025-05-10T20:18:06.525Z</time>
      </trkpt>
      <trkpt lat="52.024077" lon="8.899614">
        <ele>98.690073</ele>
        <time>2025-05-10T20:18:11.017Z</time>
      </trkpt>
      <trkpt lat="52.023986" lon="8.901106">
        <ele>98.817063</ele>
        <time>2025-05-10T20:18:37.367Z</time>
      </trkpt>
      <trkpt lat="52.023918" lon="8.901989">
        <ele>98.892435</ele>
        <time>2025-05-10T20:18:51.402Z</time>
      </trkpt>
      <trkpt lat="52.023946" lon="8.903493">
        <ele>98.644043</ele>
        <time>2025-05-10T20:19:14.191Z</time>
      </trkpt>
      <trkpt lat="52.023892" lon="8.904000">
        <ele>98.533487</ele>
        <time>2025-05-10T20:19:22.142Z</time>
      </trkpt>
      <trkpt lat="52.023872" lon="8.904100">
        <ele>98.510895</ele>
        <time>2025-05-10T20:19:23.787Z</time>
      </trkpt>
      <trkpt lat="52.023851" lon="8.904259">
        <ele>98.475953</ele>
        <time>2025-05-10T20:19:26.386Z</time>
      </trkpt>
      <trkpt lat="52.023846" lon="8.904631">
        <ele>98.396005</ele>
        <time>2025-05-10T20:19:32.336Z</time>
      </trkpt>
      <trkpt lat="52.023984" lon="8.905573">
        <ele>98.168508</ele>
        <time>2025-05-10T20:19:47.727Z</time>
      </trkpt>
      <trkpt lat="52.024136" lon="8.906030">
        <ele>98.034663</ele>
        <time>2025-05-10T20:19:55.641Z</time>
      </trkpt>
      <trkpt lat="52.024340" lon="8.906308">
        <ele>97.923189</ele>
        <time>2025-05-10T20:20:02.072Z</time>
      </trkpt>
      <trkpt lat="52.024396" lon="8.906385">
        <ele>97.892474</ele>
        <time>2025-05-10T20:20:03.921Z</time>
      </trkpt>
      <trkpt lat="52.025135" lon="8.907017">
        <ele>97.542815</ele>
        <time>2025-05-10T20:20:24.521Z</time>
      </trkpt>
      <trkpt lat="52.025188" lon="8.907045">
        <ele>97.532440</ele>
        <time>2025-05-10T20:20:26.380Z</time>
      </trkpt>
      <trkpt lat="52.025203" lon="8.907453">
        <ele>97.532440</ele>
        <time>2025-05-10T20:20:33.004Z</time>
      </trkpt>
      <trkpt lat="52.025148" lon="8.907466">
        <ele>97.532440</ele>
        <time>2025-05-10T20:20:34.902Z</time>
      </trkpt>
      <trkpt lat="52.025134" lon="8.907465">
        <ele>97.532440</ele>
        <time>2025-05-10T20:20:35.381Z</time>
      </trkpt>
      <trkpt lat="52.025044" lon="8.907447">
        <ele>97.532440</ele>
        <time>2025-05-10T20:20:37.678Z</time>
      </trkpt>
      <trkpt lat="52.024891" lon="8.907415">
        <ele>97.532440</ele>
        <time>2025-05-10T20:20:41.690Z</time>
      </trkpt>
      <trkpt lat="52.024761" lon="8.907326">
        <ele>97.532440</ele>
        <time>2025-05-10T20:20:45.405Z</time>
      </trkpt>
      <trkpt lat="52.024630" lon="8.907230">
        <ele>97.532440</ele>
        <time>2025-05-10T20:20:49.250Z</time>
      </trkpt>
      <trkpt lat="52.024501" lon="8.907135">
        <ele>97.532440</ele>
        <time>2025-05-10T20:20:53.122Z</time>
      </trkpt>
      <trkpt lat="52.024446" lon="8.907343">
        <ele>97.532440</ele>
        <time>2025-05-10T20:20:57.012Z</time>
      </trkpt>
    </trkseg>
  </trk>
</gpx>